<?xml version="1.0" encoding="UTF-8" standalone="no" ?>
<gpx xmlns="http://www.topografix.com/GPX/1/1" xmlns:xsi="http://www.w3.org/2001/XMLSchema-instance" xsi:schemaLocation="http://www.topografix.com/GPX/1/1 http://www.topografix.com/GPX/1/1/gpx.xsd" version="1.1" creator="VisuGPX - https://www.visugpx.com">
  <metadata>
    <name>Prepa MegaRando</name>
    <desc><![CDATA[Total: 4.9km]]></desc>
  </metadata>
  <trk>
    <name><![CDATA[randogps33-611]]></name>
    <extensions>
      <line xmlns="http://www.topografix.com/GPX/gpx_style/0/2">
        <color>0000FF</color>
        <width>4</width>
      </line>
    </extensions>
    <trkseg>
      <trkpt lat="44.69246" lon="-0.23061">
        <ele>61.18</ele>
        <time>2017-11-28T12:05:39Z</time>
      </trkpt>
      <trkpt lat="44.69245" lon="-0.2306">
        <ele>61.18</ele>
        <time>2017-11-28T12:06:02Z</time>
      </trkpt>
      <trkpt lat="44.69247" lon="-0.2306">
        <ele>61.18</ele>
        <time>2017-11-28T12:06:30Z</time>
      </trkpt>
      <trkpt lat="44.69246" lon="-0.23059">
        <ele>63.1</ele>
        <time>2017-11-28T12:06:57Z</time>
      </trkpt>
      <trkpt lat="44.69245" lon="-0.2306">
        <ele>61.66</ele>
        <time>2017-11-28T12:07:27Z</time>
      </trkpt>
      <trkpt lat="44.69245" lon="-0.23059">
        <ele>63.1</ele>
        <time>2017-11-28T12:07:48Z</time>
      </trkpt>
      <trkpt lat="44.69245" lon="-0.23059">
        <ele>61.66</ele>
        <time>2017-11-28T12:08:04Z</time>
      </trkpt>
      <trkpt lat="44.69245" lon="-0.2306">
        <ele>61.66</ele>
        <time>2017-11-28T12:08:28Z</time>
      </trkpt>
      <trkpt lat="44.69244" lon="-0.2306">
        <ele>61.66</ele>
        <time>2017-11-28T12:08:39Z</time>
      </trkpt>
      <trkpt lat="44.69241" lon="-0.23064">
        <ele>61.18</ele>
        <time>2017-11-28T12:08:51Z</time>
      </trkpt>
      <trkpt lat="44.69227" lon="-0.23078">
        <ele>63.1</ele>
        <time>2017-11-28T12:09:09Z</time>
      </trkpt>
      <trkpt lat="44.69224" lon="-0.23083">
        <ele>61.66</ele>
        <time>2017-11-28T12:09:14Z</time>
      </trkpt>
      <trkpt lat="44.69224" lon="-0.2309">
        <ele>63.1</ele>
        <time>2017-11-28T12:09:21Z</time>
      </trkpt>
      <trkpt lat="44.6922" lon="-0.23099">
        <ele>63.58</ele>
        <time>2017-11-28T12:09:32Z</time>
      </trkpt>
      <trkpt lat="44.69217" lon="-0.231">
        <ele>63.58</ele>
        <time>2017-11-28T12:09:46Z</time>
      </trkpt>
      <trkpt lat="44.6921" lon="-0.23112">
        <ele>64.07</ele>
        <time>2017-11-28T12:09:59Z</time>
      </trkpt>
      <trkpt lat="44.69202" lon="-0.23126">
        <ele>63.58</ele>
        <time>2017-11-28T12:10:12Z</time>
      </trkpt>
      <trkpt lat="44.69197" lon="-0.23129">
        <ele>64.55</ele>
        <time>2017-11-28T12:10:24Z</time>
      </trkpt>
      <trkpt lat="44.69199" lon="-0.23132">
        <ele>64.55</ele>
        <time>2017-11-28T12:10:47Z</time>
      </trkpt>
      <trkpt lat="44.69198" lon="-0.23132">
        <ele>64.55</ele>
        <time>2017-11-28T12:11:07Z</time>
      </trkpt>
      <trkpt lat="44.692" lon="-0.23131">
        <ele>64.55</ele>
        <time>2017-11-28T12:11:28Z</time>
      </trkpt>
      <trkpt lat="44.692" lon="-0.23133">
        <ele>64.55</ele>
        <time>2017-11-28T12:11:46Z</time>
      </trkpt>
      <trkpt lat="44.69201" lon="-0.23132">
        <ele>65.03</ele>
        <time>2017-11-28T12:12:01Z</time>
      </trkpt>
      <trkpt lat="44.69201" lon="-0.23132">
        <ele>65.03</ele>
        <time>2017-11-28T12:12:20Z</time>
      </trkpt>
      <trkpt lat="44.692" lon="-0.23132">
        <ele>65.03</ele>
        <time>2017-11-28T12:12:41Z</time>
      </trkpt>
      <trkpt lat="44.692" lon="-0.23131">
        <ele>65.03</ele>
        <time>2017-11-28T12:12:57Z</time>
      </trkpt>
      <trkpt lat="44.69199" lon="-0.23128">
        <ele>64.55</ele>
        <time>2017-11-28T12:13:28Z</time>
      </trkpt>
      <trkpt lat="44.692" lon="-0.23131">
        <ele>64.55</ele>
        <time>2017-11-28T12:13:49Z</time>
      </trkpt>
      <trkpt lat="44.69201" lon="-0.23133">
        <ele>64.55</ele>
        <time>2017-11-28T12:13:52Z</time>
      </trkpt>
      <trkpt lat="44.69215" lon="-0.23149">
        <ele>63.1</ele>
        <time>2017-11-28T12:14:07Z</time>
      </trkpt>
      <trkpt lat="44.69231" lon="-0.23169">
        <ele>62.62</ele>
        <time>2017-11-28T12:14:25Z</time>
      </trkpt>
      <trkpt lat="44.6923" lon="-0.23177">
        <ele>62.62</ele>
        <time>2017-11-28T12:14:31Z</time>
      </trkpt>
      <trkpt lat="44.69226" lon="-0.23188">
        <ele>62.62</ele>
        <time>2017-11-28T12:14:38Z</time>
      </trkpt>
      <trkpt lat="44.69215" lon="-0.23214">
        <ele>62.62</ele>
        <time>2017-11-28T12:14:55Z</time>
      </trkpt>
      <trkpt lat="44.69213" lon="-0.23215">
        <ele>62.62</ele>
        <time>2017-11-28T12:14:58Z</time>
      </trkpt>
      <trkpt lat="44.69199" lon="-0.23206">
        <ele>62.62</ele>
        <time>2017-11-28T12:15:12Z</time>
      </trkpt>
      <trkpt lat="44.69197" lon="-0.23204">
        <ele>62.62</ele>
        <time>2017-11-28T12:15:19Z</time>
      </trkpt>
      <trkpt lat="44.69196" lon="-0.23202">
        <ele>62.62</ele>
        <time>2017-11-28T12:15:21Z</time>
      </trkpt>
      <trkpt lat="44.6919" lon="-0.23196">
        <ele>64.07</ele>
        <time>2017-11-28T12:15:30Z</time>
      </trkpt>
      <trkpt lat="44.69173" lon="-0.2318">
        <ele>64.07</ele>
        <time>2017-11-28T12:15:46Z</time>
      </trkpt>
      <trkpt lat="44.69161" lon="-0.23164">
        <ele>63.58</ele>
        <time>2017-11-28T12:16:01Z</time>
      </trkpt>
      <trkpt lat="44.69144" lon="-0.23146">
        <ele>64.07</ele>
        <time>2017-11-28T12:16:19Z</time>
      </trkpt>
      <trkpt lat="44.69128" lon="-0.23126">
        <ele>64.55</ele>
        <time>2017-11-28T12:16:36Z</time>
      </trkpt>
      <trkpt lat="44.69114" lon="-0.23109">
        <ele>65.03</ele>
        <time>2017-11-28T12:16:53Z</time>
      </trkpt>
      <trkpt lat="44.69101" lon="-0.23094">
        <ele>65.03</ele>
        <time>2017-11-28T12:17:09Z</time>
      </trkpt>
      <trkpt lat="44.69088" lon="-0.23081">
        <ele>65.99</ele>
        <time>2017-11-28T12:17:23Z</time>
      </trkpt>
      <trkpt lat="44.69075" lon="-0.23066">
        <ele>65.51</ele>
        <time>2017-11-28T12:17:38Z</time>
      </trkpt>
      <trkpt lat="44.69059" lon="-0.23049">
        <ele>65.99</ele>
        <time>2017-11-28T12:17:55Z</time>
      </trkpt>
      <trkpt lat="44.69044" lon="-0.23034">
        <ele>66.47</ele>
        <time>2017-11-28T12:18:10Z</time>
      </trkpt>
      <trkpt lat="44.6903" lon="-0.23019">
        <ele>66.95</ele>
        <time>2017-11-28T12:18:27Z</time>
      </trkpt>
      <trkpt lat="44.69013" lon="-0.23005">
        <ele>67.43</ele>
        <time>2017-11-28T12:18:44Z</time>
      </trkpt>
      <trkpt lat="44.68997" lon="-0.22992">
        <ele>67.43</ele>
        <time>2017-11-28T12:19:00Z</time>
      </trkpt>
      <trkpt lat="44.68982" lon="-0.22977">
        <ele>67.91</ele>
        <time>2017-11-28T12:19:16Z</time>
      </trkpt>
      <trkpt lat="44.68968" lon="-0.22962">
        <ele>68.39</ele>
        <time>2017-11-28T12:19:32Z</time>
      </trkpt>
      <trkpt lat="44.68957" lon="-0.22946">
        <ele>68.87</ele>
        <time>2017-11-28T12:19:47Z</time>
      </trkpt>
      <trkpt lat="44.68957" lon="-0.22944">
        <ele>69.35</ele>
        <time>2017-11-28T12:19:48Z</time>
      </trkpt>
      <trkpt lat="44.68961" lon="-0.22934">
        <ele>69.83</ele>
        <time>2017-11-28T12:20:02Z</time>
      </trkpt>
      <trkpt lat="44.68962" lon="-0.22933">
        <ele>69.35</ele>
        <time>2017-11-28T12:20:09Z</time>
      </trkpt>
      <trkpt lat="44.68963" lon="-0.22934">
        <ele>70.31</ele>
        <time>2017-11-28T12:20:25Z</time>
      </trkpt>
      <trkpt lat="44.68965" lon="-0.22929">
        <ele>69.35</ele>
        <time>2017-11-28T12:20:36Z</time>
      </trkpt>
      <trkpt lat="44.68967" lon="-0.22927">
        <ele>69.35</ele>
        <time>2017-11-28T12:20:48Z</time>
      </trkpt>
      <trkpt lat="44.68969" lon="-0.22927">
        <ele>69.35</ele>
        <time>2017-11-28T12:21:27Z</time>
      </trkpt>
      <trkpt lat="44.68968" lon="-0.22926">
        <ele>70.31</ele>
        <time>2017-11-28T12:22:01Z</time>
      </trkpt>
      <trkpt lat="44.68967" lon="-0.22925">
        <ele>69.83</ele>
        <time>2017-11-28T12:22:34Z</time>
      </trkpt>
      <trkpt lat="44.68965" lon="-0.2293">
        <ele>69.83</ele>
        <time>2017-11-28T12:23:02Z</time>
      </trkpt>
      <trkpt lat="44.68964" lon="-0.2293">
        <ele>69.83</ele>
        <time>2017-11-28T12:23:03Z</time>
      </trkpt>
      <trkpt lat="44.6896" lon="-0.22946">
        <ele>69.83</ele>
        <time>2017-11-28T12:23:14Z</time>
      </trkpt>
      <trkpt lat="44.68962" lon="-0.22949">
        <ele>68.87</ele>
        <time>2017-11-28T12:23:23Z</time>
      </trkpt>
      <trkpt lat="44.68962" lon="-0.22943">
        <ele>68.87</ele>
        <time>2017-11-28T12:23:28Z</time>
      </trkpt>
      <trkpt lat="44.68967" lon="-0.22929">
        <ele>68.39</ele>
        <time>2017-11-28T12:23:42Z</time>
      </trkpt>
      <trkpt lat="44.68968" lon="-0.22929">
        <ele>69.83</ele>
        <time>2017-11-28T12:23:58Z</time>
      </trkpt>
      <trkpt lat="44.68969" lon="-0.22927">
        <ele>69.83</ele>
        <time>2017-11-28T12:24:21Z</time>
      </trkpt>
      <trkpt lat="44.6897" lon="-0.22926">
        <ele>69.83</ele>
        <time>2017-11-28T12:24:24Z</time>
      </trkpt>
      <trkpt lat="44.68977" lon="-0.22912">
        <ele>69.83</ele>
        <time>2017-11-28T12:24:39Z</time>
      </trkpt>
      <trkpt lat="44.68977" lon="-0.22903">
        <ele>69.83</ele>
        <time>2017-11-28T12:24:45Z</time>
      </trkpt>
      <trkpt lat="44.68966" lon="-0.2289">
        <ele>70.31</ele>
        <time>2017-11-28T12:25:01Z</time>
      </trkpt>
      <trkpt lat="44.68962" lon="-0.22886">
        <ele>70.31</ele>
        <time>2017-11-28T12:25:04Z</time>
      </trkpt>
      <trkpt lat="44.68956" lon="-0.22878">
        <ele>71.27</ele>
        <time>2017-11-28T12:25:12Z</time>
      </trkpt>
      <trkpt lat="44.6895" lon="-0.22871">
        <ele>71.27</ele>
        <time>2017-11-28T12:25:20Z</time>
      </trkpt>
      <trkpt lat="44.68938" lon="-0.22857">
        <ele>72.24</ele>
        <time>2017-11-28T12:25:34Z</time>
      </trkpt>
      <trkpt lat="44.68924" lon="-0.22841">
        <ele>72.24</ele>
        <time>2017-11-28T12:25:49Z</time>
      </trkpt>
      <trkpt lat="44.68911" lon="-0.22826">
        <ele>72.24</ele>
        <time>2017-11-28T12:26:04Z</time>
      </trkpt>
      <trkpt lat="44.689" lon="-0.22814">
        <ele>72.24</ele>
        <time>2017-11-28T12:26:18Z</time>
      </trkpt>
      <trkpt lat="44.68889" lon="-0.228">
        <ele>72.72</ele>
        <time>2017-11-28T12:26:32Z</time>
      </trkpt>
      <trkpt lat="44.68885" lon="-0.22792">
        <ele>72.72</ele>
        <time>2017-11-28T12:26:40Z</time>
      </trkpt>
      <trkpt lat="44.68894" lon="-0.22774">
        <ele>72.72</ele>
        <time>2017-11-28T12:26:54Z</time>
      </trkpt>
      <trkpt lat="44.68894" lon="-0.22773">
        <ele>72.72</ele>
        <time>2017-11-28T12:26:55Z</time>
      </trkpt>
      <trkpt lat="44.68896" lon="-0.22764">
        <ele>71.27</ele>
        <time>2017-11-28T12:27:06Z</time>
      </trkpt>
      <trkpt lat="44.68906" lon="-0.22748">
        <ele>70.31</ele>
        <time>2017-11-28T12:27:22Z</time>
      </trkpt>
      <trkpt lat="44.68916" lon="-0.22732">
        <ele>69.83</ele>
        <time>2017-11-28T12:27:36Z</time>
      </trkpt>
      <trkpt lat="44.68917" lon="-0.22727">
        <ele>69.83</ele>
        <time>2017-11-28T12:27:43Z</time>
      </trkpt>
      <trkpt lat="44.68911" lon="-0.2272">
        <ele>69.83</ele>
        <time>2017-11-28T12:27:49Z</time>
      </trkpt>
      <trkpt lat="44.68893" lon="-0.22705">
        <ele>71.76</ele>
        <time>2017-11-28T12:28:06Z</time>
      </trkpt>
      <trkpt lat="44.68873" lon="-0.22683">
        <ele>71.76</ele>
        <time>2017-11-28T12:28:24Z</time>
      </trkpt>
      <trkpt lat="44.68854" lon="-0.22664">
        <ele>72.24</ele>
        <time>2017-11-28T12:28:43Z</time>
      </trkpt>
      <trkpt lat="44.68836" lon="-0.22641">
        <ele>72.24</ele>
        <time>2017-11-28T12:29:05Z</time>
      </trkpt>
      <trkpt lat="44.68823" lon="-0.2262">
        <ele>73.2</ele>
        <time>2017-11-28T12:29:23Z</time>
      </trkpt>
      <trkpt lat="44.68805" lon="-0.22595">
        <ele>73.2</ele>
        <time>2017-11-28T12:29:42Z</time>
      </trkpt>
      <trkpt lat="44.68791" lon="-0.22576">
        <ele>73.2</ele>
        <time>2017-11-28T12:29:58Z</time>
      </trkpt>
      <trkpt lat="44.68783" lon="-0.22565">
        <ele>73.68</ele>
        <time>2017-11-28T12:30:11Z</time>
      </trkpt>
      <trkpt lat="44.68776" lon="-0.22563">
        <ele>74.16</ele>
        <time>2017-11-28T12:30:27Z</time>
      </trkpt>
      <trkpt lat="44.68773" lon="-0.22569">
        <ele>74.16</ele>
        <time>2017-11-28T12:30:42Z</time>
      </trkpt>
      <trkpt lat="44.68767" lon="-0.22579">
        <ele>74.64</ele>
        <time>2017-11-28T12:30:53Z</time>
      </trkpt>
      <trkpt lat="44.68764" lon="-0.22586">
        <ele>74.64</ele>
        <time>2017-11-28T12:30:59Z</time>
      </trkpt>
      <trkpt lat="44.68756" lon="-0.22604">
        <ele>75.6</ele>
        <time>2017-11-28T12:31:14Z</time>
      </trkpt>
      <trkpt lat="44.68742" lon="-0.22617">
        <ele>76.56</ele>
        <time>2017-11-28T12:31:29Z</time>
      </trkpt>
      <trkpt lat="44.68726" lon="-0.2262">
        <ele>77.52</ele>
        <time>2017-11-28T12:31:44Z</time>
      </trkpt>
      <trkpt lat="44.6871" lon="-0.22632">
        <ele>78.97</ele>
        <time>2017-11-28T12:32:00Z</time>
      </trkpt>
      <trkpt lat="44.68696" lon="-0.22646">
        <ele>79.93</ele>
        <time>2017-11-28T12:32:15Z</time>
      </trkpt>
      <trkpt lat="44.68683" lon="-0.22651">
        <ele>80.41</ele>
        <time>2017-11-28T12:32:27Z</time>
      </trkpt>
      <trkpt lat="44.68668" lon="-0.22659">
        <ele>80.41</ele>
        <time>2017-11-28T12:32:42Z</time>
      </trkpt>
      <trkpt lat="44.68653" lon="-0.22668">
        <ele>81.85</ele>
        <time>2017-11-28T12:32:58Z</time>
      </trkpt>
      <trkpt lat="44.68637" lon="-0.22673">
        <ele>82.81</ele>
        <time>2017-11-28T12:33:15Z</time>
      </trkpt>
      <trkpt lat="44.68628" lon="-0.22677">
        <ele>83.29</ele>
        <time>2017-11-28T12:33:34Z</time>
      </trkpt>
      <trkpt lat="44.68613" lon="-0.22686">
        <ele>85.21</ele>
        <time>2017-11-28T12:33:49Z</time>
      </trkpt>
      <trkpt lat="44.68608" lon="-0.22687">
        <ele>85.21</ele>
        <time>2017-11-28T12:33:53Z</time>
      </trkpt>
      <trkpt lat="44.68591" lon="-0.22689">
        <ele>85.21</ele>
        <time>2017-11-28T12:34:07Z</time>
      </trkpt>
      <trkpt lat="44.68587" lon="-0.2269">
        <ele>85.21</ele>
        <time>2017-11-28T12:34:19Z</time>
      </trkpt>
      <trkpt lat="44.68575" lon="-0.22702">
        <ele>85.21</ele>
        <time>2017-11-28T12:34:31Z</time>
      </trkpt>
      <trkpt lat="44.6856" lon="-0.22712">
        <ele>85.21</ele>
        <time>2017-11-28T12:34:45Z</time>
      </trkpt>
      <trkpt lat="44.68544" lon="-0.2272">
        <ele>85.21</ele>
        <time>2017-11-28T12:35:03Z</time>
      </trkpt>
      <trkpt lat="44.68542" lon="-0.22733">
        <ele>85.21</ele>
        <time>2017-11-28T12:35:12Z</time>
      </trkpt>
      <trkpt lat="44.68544" lon="-0.22744">
        <ele>85.21</ele>
        <time>2017-11-28T12:35:20Z</time>
      </trkpt>
      <trkpt lat="44.68541" lon="-0.22774">
        <ele>85.21</ele>
        <time>2017-11-28T12:35:36Z</time>
      </trkpt>
      <trkpt lat="44.6854" lon="-0.22792">
        <ele>83.77</ele>
        <time>2017-11-28T12:35:49Z</time>
      </trkpt>
      <trkpt lat="44.68538" lon="-0.22813">
        <ele>83.29</ele>
        <time>2017-11-28T12:36:07Z</time>
      </trkpt>
      <trkpt lat="44.68529" lon="-0.22841">
        <ele>82.81</ele>
        <time>2017-11-28T12:36:25Z</time>
      </trkpt>
      <trkpt lat="44.68523" lon="-0.22851">
        <ele>82.33</ele>
        <time>2017-11-28T12:36:32Z</time>
      </trkpt>
      <trkpt lat="44.68513" lon="-0.22869">
        <ele>80.89</ele>
        <time>2017-11-28T12:36:46Z</time>
      </trkpt>
      <trkpt lat="44.68501" lon="-0.2289">
        <ele>80.89</ele>
        <time>2017-11-28T12:36:59Z</time>
      </trkpt>
      <trkpt lat="44.68489" lon="-0.22911">
        <ele>80.89</ele>
        <time>2017-11-28T12:37:14Z</time>
      </trkpt>
      <trkpt lat="44.68479" lon="-0.22928">
        <ele>80.41</ele>
        <time>2017-11-28T12:37:27Z</time>
      </trkpt>
      <trkpt lat="44.6847" lon="-0.22946">
        <ele>80.41</ele>
        <time>2017-11-28T12:37:40Z</time>
      </trkpt>
      <trkpt lat="44.68468" lon="-0.22948">
        <ele>81.85</ele>
        <time>2017-11-28T12:37:43Z</time>
      </trkpt>
      <trkpt lat="44.68468" lon="-0.22949">
        <ele>81.85</ele>
        <time>2017-11-28T12:37:44Z</time>
      </trkpt>
      <trkpt lat="44.68466" lon="-0.22961">
        <ele>82.81</ele>
        <time>2017-11-28T12:37:51Z</time>
      </trkpt>
      <trkpt lat="44.68466" lon="-0.22962">
        <ele>82.81</ele>
        <time>2017-11-28T12:37:53Z</time>
      </trkpt>
      <trkpt lat="44.68457" lon="-0.22975">
        <ele>83.29</ele>
        <time>2017-11-28T12:38:05Z</time>
      </trkpt>
      <trkpt lat="44.68443" lon="-0.22985">
        <ele>82.81</ele>
        <time>2017-11-28T12:38:19Z</time>
      </trkpt>
      <trkpt lat="44.68422" lon="-0.23001">
        <ele>81.37</ele>
        <time>2017-11-28T12:38:35Z</time>
      </trkpt>
      <trkpt lat="44.68406" lon="-0.23016">
        <ele>80.89</ele>
        <time>2017-11-28T12:38:53Z</time>
      </trkpt>
      <trkpt lat="44.684" lon="-0.23026">
        <ele>79.93</ele>
        <time>2017-11-28T12:39:01Z</time>
      </trkpt>
      <trkpt lat="44.68405" lon="-0.23045">
        <ele>79.93</ele>
        <time>2017-11-28T12:39:14Z</time>
      </trkpt>
      <trkpt lat="44.6841" lon="-0.23064">
        <ele>81.37</ele>
        <time>2017-11-28T12:39:27Z</time>
      </trkpt>
      <trkpt lat="44.68415" lon="-0.23086">
        <ele>81.85</ele>
        <time>2017-11-28T12:39:41Z</time>
      </trkpt>
      <trkpt lat="44.68418" lon="-0.23103">
        <ele>82.33</ele>
        <time>2017-11-28T12:39:52Z</time>
      </trkpt>
      <trkpt lat="44.68424" lon="-0.23122">
        <ele>82.81</ele>
        <time>2017-11-28T12:40:05Z</time>
      </trkpt>
      <trkpt lat="44.68429" lon="-0.23143">
        <ele>83.29</ele>
        <time>2017-11-28T12:40:20Z</time>
      </trkpt>
      <trkpt lat="44.68433" lon="-0.23163">
        <ele>83.77</ele>
        <time>2017-11-28T12:40:34Z</time>
      </trkpt>
      <trkpt lat="44.68439" lon="-0.23186">
        <ele>84.73</ele>
        <time>2017-11-28T12:40:48Z</time>
      </trkpt>
      <trkpt lat="44.68445" lon="-0.23205">
        <ele>84.73</ele>
        <time>2017-11-28T12:41:01Z</time>
      </trkpt>
      <trkpt lat="44.68451" lon="-0.23233">
        <ele>84.73</ele>
        <time>2017-11-28T12:41:20Z</time>
      </trkpt>
      <trkpt lat="44.68456" lon="-0.23253">
        <ele>84.73</ele>
        <time>2017-11-28T12:41:34Z</time>
      </trkpt>
      <trkpt lat="44.68456" lon="-0.23255">
        <ele>84.73</ele>
        <time>2017-11-28T12:41:36Z</time>
      </trkpt>
      <trkpt lat="44.68443" lon="-0.23267">
        <ele>83.29</ele>
        <time>2017-11-28T12:41:52Z</time>
      </trkpt>
      <trkpt lat="44.68428" lon="-0.23288">
        <ele>82.33</ele>
        <time>2017-11-28T12:42:10Z</time>
      </trkpt>
      <trkpt lat="44.68416" lon="-0.23308">
        <ele>81.37</ele>
        <time>2017-11-28T12:42:26Z</time>
      </trkpt>
      <trkpt lat="44.68417" lon="-0.23318">
        <ele>80.41</ele>
        <time>2017-11-28T12:42:31Z</time>
      </trkpt>
      <trkpt lat="44.68419" lon="-0.23335">
        <ele>79.45</ele>
        <time>2017-11-28T12:42:44Z</time>
      </trkpt>
      <trkpt lat="44.68423" lon="-0.23358">
        <ele>78.97</ele>
        <time>2017-11-28T12:42:58Z</time>
      </trkpt>
      <trkpt lat="44.68427" lon="-0.23377">
        <ele>78</ele>
        <time>2017-11-28T12:43:12Z</time>
      </trkpt>
      <trkpt lat="44.68431" lon="-0.23408">
        <ele>77.52</ele>
        <time>2017-11-28T12:43:29Z</time>
      </trkpt>
      <trkpt lat="44.68435" lon="-0.23432">
        <ele>76.08</ele>
        <time>2017-11-28T12:43:42Z</time>
      </trkpt>
      <trkpt lat="44.68439" lon="-0.23453">
        <ele>75.6</ele>
        <time>2017-11-28T12:43:56Z</time>
      </trkpt>
      <trkpt lat="44.68453" lon="-0.23464">
        <ele>75.6</ele>
        <time>2017-11-28T12:44:10Z</time>
      </trkpt>
      <trkpt lat="44.68463" lon="-0.23478">
        <ele>74.16</ele>
        <time>2017-11-28T12:44:24Z</time>
      </trkpt>
      <trkpt lat="44.68472" lon="-0.2351">
        <ele>73.68</ele>
        <time>2017-11-28T12:44:42Z</time>
      </trkpt>
      <trkpt lat="44.68478" lon="-0.23533">
        <ele>72.72</ele>
        <time>2017-11-28T12:44:57Z</time>
      </trkpt>
      <trkpt lat="44.68479" lon="-0.23536">
        <ele>72.72</ele>
        <time>2017-11-28T12:44:59Z</time>
      </trkpt>
      <trkpt lat="44.68479" lon="-0.23537">
        <ele>72.72</ele>
        <time>2017-11-28T12:45:00Z</time>
      </trkpt>
      <trkpt lat="44.68485" lon="-0.23557">
        <ele>71.27</ele>
        <time>2017-11-28T12:45:15Z</time>
      </trkpt>
      <trkpt lat="44.68492" lon="-0.23584">
        <ele>69.83</ele>
        <time>2017-11-28T12:45:32Z</time>
      </trkpt>
      <trkpt lat="44.68502" lon="-0.23627">
        <ele>68.39</ele>
        <time>2017-11-28T12:45:53Z</time>
      </trkpt>
      <trkpt lat="44.68511" lon="-0.2365">
        <ele>66.47</ele>
        <time>2017-11-28T12:46:12Z</time>
      </trkpt>
      <trkpt lat="44.6852" lon="-0.23675">
        <ele>65.51</ele>
        <time>2017-11-28T12:46:28Z</time>
      </trkpt>
      <trkpt lat="44.68531" lon="-0.23706">
        <ele>64.55</ele>
        <time>2017-11-28T12:46:44Z</time>
      </trkpt>
      <trkpt lat="44.68536" lon="-0.23724">
        <ele>63.58</ele>
        <time>2017-11-28T12:46:59Z</time>
      </trkpt>
      <trkpt lat="44.68545" lon="-0.23748">
        <ele>63.58</ele>
        <time>2017-11-28T12:47:15Z</time>
      </trkpt>
      <trkpt lat="44.68554" lon="-0.23771">
        <ele>62.62</ele>
        <time>2017-11-28T12:47:30Z</time>
      </trkpt>
      <trkpt lat="44.68563" lon="-0.23798">
        <ele>62.14</ele>
        <time>2017-11-28T12:47:47Z</time>
      </trkpt>
      <trkpt lat="44.68569" lon="-0.23819">
        <ele>61.66</ele>
        <time>2017-11-28T12:48:02Z</time>
      </trkpt>
      <trkpt lat="44.6857" lon="-0.23819">
        <ele>61.66</ele>
        <time>2017-11-28T12:48:03Z</time>
      </trkpt>
      <trkpt lat="44.68571" lon="-0.23821">
        <ele>61.66</ele>
        <time>2017-11-28T12:48:04Z</time>
      </trkpt>
      <trkpt lat="44.68572" lon="-0.23822">
        <ele>61.66</ele>
        <time>2017-11-28T12:48:05Z</time>
      </trkpt>
      <trkpt lat="44.68572" lon="-0.23825">
        <ele>61.66</ele>
        <time>2017-11-28T12:48:06Z</time>
      </trkpt>
      <trkpt lat="44.68572" lon="-0.23826">
        <ele>61.66</ele>
        <time>2017-11-28T12:48:07Z</time>
      </trkpt>
      <trkpt lat="44.68573" lon="-0.23828">
        <ele>61.66</ele>
        <time>2017-11-28T12:48:08Z</time>
      </trkpt>
      <trkpt lat="44.68574" lon="-0.2383">
        <ele>61.66</ele>
        <time>2017-11-28T12:48:09Z</time>
      </trkpt>
      <trkpt lat="44.68582" lon="-0.23855">
        <ele>61.66</ele>
        <time>2017-11-28T12:48:27Z</time>
      </trkpt>
      <trkpt lat="44.68591" lon="-0.23886">
        <ele>60.7</ele>
        <time>2017-11-28T12:48:46Z</time>
      </trkpt>
      <trkpt lat="44.68597" lon="-0.23899">
        <ele>59.74</ele>
        <time>2017-11-28T12:48:57Z</time>
      </trkpt>
      <trkpt lat="44.68598" lon="-0.23901">
        <ele>59.74</ele>
        <time>2017-11-28T12:48:58Z</time>
      </trkpt>
      <trkpt lat="44.68598" lon="-0.23903">
        <ele>59.74</ele>
        <time>2017-11-28T12:48:59Z</time>
      </trkpt>
      <trkpt lat="44.68608" lon="-0.23926">
        <ele>59.26</ele>
        <time>2017-11-28T12:49:14Z</time>
      </trkpt>
      <trkpt lat="44.68619" lon="-0.23952">
        <ele>58.78</ele>
        <time>2017-11-28T12:49:31Z</time>
      </trkpt>
      <trkpt lat="44.68621" lon="-0.2396">
        <ele>58.78</ele>
        <time>2017-11-28T12:49:37Z</time>
      </trkpt>
      <trkpt lat="44.68628" lon="-0.23977">
        <ele>57.82</ele>
        <time>2017-11-28T12:49:49Z</time>
      </trkpt>
      <trkpt lat="44.68628" lon="-0.23978">
        <ele>57.82</ele>
        <time>2017-11-28T12:49:50Z</time>
      </trkpt>
      <trkpt lat="44.68639" lon="-0.24005">
        <ele>57.34</ele>
        <time>2017-11-28T12:50:08Z</time>
      </trkpt>
      <trkpt lat="44.6865" lon="-0.24032">
        <ele>57.34</ele>
        <time>2017-11-28T12:50:23Z</time>
      </trkpt>
      <trkpt lat="44.68657" lon="-0.2405">
        <ele>57.34</ele>
        <time>2017-11-28T12:50:37Z</time>
      </trkpt>
      <trkpt lat="44.68666" lon="-0.24073">
        <ele>57.34</ele>
        <time>2017-11-28T12:50:53Z</time>
      </trkpt>
      <trkpt lat="44.68672" lon="-0.24082">
        <ele>56.86</ele>
        <time>2017-11-28T12:51:02Z</time>
      </trkpt>
      <trkpt lat="44.68672" lon="-0.24083">
        <ele>56.86</ele>
        <time>2017-11-28T12:51:15Z</time>
      </trkpt>
      <trkpt lat="44.68672" lon="-0.24084">
        <ele>57.82</ele>
        <time>2017-11-28T12:51:36Z</time>
      </trkpt>
      <trkpt lat="44.68671" lon="-0.24084">
        <ele>57.82</ele>
        <time>2017-11-28T12:52:05Z</time>
      </trkpt>
      <trkpt lat="44.68671" lon="-0.24081">
        <ele>57.82</ele>
        <time>2017-11-28T12:52:22Z</time>
      </trkpt>
      <trkpt lat="44.68668" lon="-0.24077">
        <ele>57.82</ele>
        <time>2017-11-28T12:52:36Z</time>
      </trkpt>
      <trkpt lat="44.68667" lon="-0.24073">
        <ele>57.82</ele>
        <time>2017-11-28T12:52:58Z</time>
      </trkpt>
      <trkpt lat="44.68663" lon="-0.24067">
        <ele>57.82</ele>
        <time>2017-11-28T12:53:11Z</time>
      </trkpt>
      <trkpt lat="44.68663" lon="-0.24064">
        <ele>57.82</ele>
        <time>2017-11-28T12:53:14Z</time>
      </trkpt>
      <trkpt lat="44.68661" lon="-0.24066">
        <ele>57.82</ele>
        <time>2017-11-28T12:53:22Z</time>
      </trkpt>
      <trkpt lat="44.68665" lon="-0.24071">
        <ele>57.82</ele>
        <time>2017-11-28T12:53:28Z</time>
      </trkpt>
      <trkpt lat="44.68666" lon="-0.24072">
        <ele>57.82</ele>
        <time>2017-11-28T12:53:29Z</time>
      </trkpt>
      <trkpt lat="44.68669" lon="-0.24077">
        <ele>57.82</ele>
        <time>2017-11-28T12:53:35Z</time>
      </trkpt>
      <trkpt lat="44.6867" lon="-0.24079">
        <ele>57.82</ele>
        <time>2017-11-28T12:53:37Z</time>
      </trkpt>
      <trkpt lat="44.68674" lon="-0.24083">
        <ele>57.82</ele>
        <time>2017-11-28T12:53:45Z</time>
      </trkpt>
      <trkpt lat="44.68679" lon="-0.24083">
        <ele>57.82</ele>
        <time>2017-11-28T12:53:50Z</time>
      </trkpt>
      <trkpt lat="44.68682" lon="-0.24081">
        <ele>57.82</ele>
        <time>2017-11-28T12:53:53Z</time>
      </trkpt>
      <trkpt lat="44.68686" lon="-0.24082">
        <ele>57.82</ele>
        <time>2017-11-28T12:53:58Z</time>
      </trkpt>
      <trkpt lat="44.68687" lon="-0.24083">
        <ele>57.82</ele>
        <time>2017-11-28T12:53:59Z</time>
      </trkpt>
      <trkpt lat="44.68688" lon="-0.24085">
        <ele>56.86</ele>
        <time>2017-11-28T12:54:00Z</time>
      </trkpt>
      <trkpt lat="44.68689" lon="-0.24087">
        <ele>56.86</ele>
        <time>2017-11-28T12:54:01Z</time>
      </trkpt>
      <trkpt lat="44.68697" lon="-0.24105">
        <ele>55.89</ele>
        <time>2017-11-28T12:54:15Z</time>
      </trkpt>
      <trkpt lat="44.68705" lon="-0.24126">
        <ele>55.89</ele>
        <time>2017-11-28T12:54:30Z</time>
      </trkpt>
      <trkpt lat="44.68713" lon="-0.24146">
        <ele>54.93</ele>
        <time>2017-11-28T12:54:46Z</time>
      </trkpt>
      <trkpt lat="44.68721" lon="-0.24167">
        <ele>54.93</ele>
        <time>2017-11-28T12:55:01Z</time>
      </trkpt>
      <trkpt lat="44.68729" lon="-0.2419">
        <ele>54.45</ele>
        <time>2017-11-28T12:55:17Z</time>
      </trkpt>
      <trkpt lat="44.68735" lon="-0.24213">
        <ele>54.45</ele>
        <time>2017-11-28T12:55:33Z</time>
      </trkpt>
      <trkpt lat="44.68741" lon="-0.24236">
        <ele>54.45</ele>
        <time>2017-11-28T12:55:48Z</time>
      </trkpt>
      <trkpt lat="44.68746" lon="-0.24257">
        <ele>54.45</ele>
        <time>2017-11-28T12:56:02Z</time>
      </trkpt>
      <trkpt lat="44.68753" lon="-0.24279">
        <ele>54.45</ele>
        <time>2017-11-28T12:56:17Z</time>
      </trkpt>
      <trkpt lat="44.6876" lon="-0.24301">
        <ele>53.97</ele>
        <time>2017-11-28T12:56:32Z</time>
      </trkpt>
      <trkpt lat="44.68759" lon="-0.24306">
        <ele>53.97</ele>
        <time>2017-11-28T12:56:36Z</time>
      </trkpt>
      <trkpt lat="44.68751" lon="-0.24324">
        <ele>53.97</ele>
        <time>2017-11-28T12:56:50Z</time>
      </trkpt>
      <trkpt lat="44.68751" lon="-0.24325">
        <ele>53.97</ele>
        <time>2017-11-28T12:56:51Z</time>
      </trkpt>
      <trkpt lat="44.68759" lon="-0.24345">
        <ele>53.97</ele>
        <time>2017-11-28T12:57:05Z</time>
      </trkpt>
      <trkpt lat="44.68769" lon="-0.2437">
        <ele>53.49</ele>
        <time>2017-11-28T12:57:23Z</time>
      </trkpt>
      <trkpt lat="44.68777" lon="-0.24394">
        <ele>53.49</ele>
        <time>2017-11-28T12:57:40Z</time>
      </trkpt>
      <trkpt lat="44.68785" lon="-0.24415">
        <ele>53.01</ele>
        <time>2017-11-28T12:57:54Z</time>
      </trkpt>
      <trkpt lat="44.68792" lon="-0.24436">
        <ele>53.01</ele>
        <time>2017-11-28T12:58:09Z</time>
      </trkpt>
      <trkpt lat="44.68798" lon="-0.24455">
        <ele>53.97</ele>
        <time>2017-11-28T12:58:23Z</time>
      </trkpt>
      <trkpt lat="44.68797" lon="-0.24469">
        <ele>53.97</ele>
        <time>2017-11-28T12:58:36Z</time>
      </trkpt>
      <trkpt lat="44.68797" lon="-0.24472">
        <ele>53.97</ele>
        <time>2017-11-28T12:58:38Z</time>
      </trkpt>
      <trkpt lat="44.68797" lon="-0.24479">
        <ele>53.97</ele>
        <time>2017-11-28T12:58:43Z</time>
      </trkpt>
      <trkpt lat="44.68795" lon="-0.24499">
        <ele>53.97</ele>
        <time>2017-11-28T12:58:58Z</time>
      </trkpt>
      <trkpt lat="44.68794" lon="-0.24517">
        <ele>53.49</ele>
        <time>2017-11-28T12:59:12Z</time>
      </trkpt>
      <trkpt lat="44.68795" lon="-0.24528">
        <ele>53.97</ele>
        <time>2017-11-28T12:59:24Z</time>
      </trkpt>
      <trkpt lat="44.68796" lon="-0.24537">
        <ele>53.97</ele>
        <time>2017-11-28T12:59:46Z</time>
      </trkpt>
      <trkpt lat="44.68806" lon="-0.24539">
        <ele>52.53</ele>
        <time>2017-11-28T13:00:00Z</time>
      </trkpt>
      <trkpt lat="44.68816" lon="-0.24548">
        <ele>51.09</ele>
        <time>2017-11-28T13:00:16Z</time>
      </trkpt>
      <trkpt lat="44.68819" lon="-0.24559">
        <ele>51.09</ele>
        <time>2017-11-28T13:00:24Z</time>
      </trkpt>
      <trkpt lat="44.68822" lon="-0.2457">
        <ele>51.09</ele>
        <time>2017-11-28T13:00:38Z</time>
      </trkpt>
      <trkpt lat="44.6882" lon="-0.24573">
        <ele>50.61</ele>
        <time>2017-11-28T13:01:03Z</time>
      </trkpt>
      <trkpt lat="44.68823" lon="-0.2458">
        <ele>50.61</ele>
        <time>2017-11-28T13:01:25Z</time>
      </trkpt>
      <trkpt lat="44.68822" lon="-0.24574">
        <ele>50.13</ele>
        <time>2017-11-28T13:01:56Z</time>
      </trkpt>
      <trkpt lat="44.68825" lon="-0.24571">
        <ele>50.13</ele>
        <time>2017-11-28T13:02:27Z</time>
      </trkpt>
      <trkpt lat="44.68828" lon="-0.24581">
        <ele>50.13</ele>
        <time>2017-11-28T13:02:43Z</time>
      </trkpt>
      <trkpt lat="44.68833" lon="-0.24595">
        <ele>49.65</ele>
        <time>2017-11-28T13:02:59Z</time>
      </trkpt>
      <trkpt lat="44.6884" lon="-0.24609">
        <ele>49.16</ele>
        <time>2017-11-28T13:03:14Z</time>
      </trkpt>
      <trkpt lat="44.68833" lon="-0.24626">
        <ele>49.16</ele>
        <time>2017-11-28T13:03:30Z</time>
      </trkpt>
      <trkpt lat="44.68831" lon="-0.24636">
        <ele>49.16</ele>
        <time>2017-11-28T13:03:40Z</time>
      </trkpt>
      <trkpt lat="44.68821" lon="-0.24646">
        <ele>51.57</ele>
        <time>2017-11-28T13:03:55Z</time>
      </trkpt>
      <trkpt lat="44.68812" lon="-0.24653">
        <ele>53.01</ele>
        <time>2017-11-28T13:04:08Z</time>
      </trkpt>
      <trkpt lat="44.68801" lon="-0.24662">
        <ele>53.01</ele>
        <time>2017-11-28T13:04:25Z</time>
      </trkpt>
      <trkpt lat="44.68796" lon="-0.24673">
        <ele>53.49</ele>
        <time>2017-11-28T13:04:41Z</time>
      </trkpt>
      <trkpt lat="44.68791" lon="-0.2468">
        <ele>53.49</ele>
        <time>2017-11-28T13:05:00Z</time>
      </trkpt>
      <trkpt lat="44.68789" lon="-0.24692">
        <ele>53.49</ele>
        <time>2017-11-28T13:05:12Z</time>
      </trkpt>
      <trkpt lat="44.68792" lon="-0.24709">
        <ele>52.05</ele>
        <time>2017-11-28T13:05:26Z</time>
      </trkpt>
      <trkpt lat="44.68803" lon="-0.24719">
        <ele>51.57</ele>
        <time>2017-11-28T13:05:43Z</time>
      </trkpt>
      <trkpt lat="44.68817" lon="-0.24728">
        <ele>50.13</ele>
        <time>2017-11-28T13:06:01Z</time>
      </trkpt>
      <trkpt lat="44.6883" lon="-0.24732">
        <ele>49.65</ele>
        <time>2017-11-28T13:06:16Z</time>
      </trkpt>
      <trkpt lat="44.68843" lon="-0.24736">
        <ele>48.68</ele>
        <time>2017-11-28T13:06:31Z</time>
      </trkpt>
      <trkpt lat="44.68855" lon="-0.24752">
        <ele>47.72</ele>
        <time>2017-11-28T13:06:49Z</time>
      </trkpt>
      <trkpt lat="44.68863" lon="-0.24763">
        <ele>47.72</ele>
        <time>2017-11-28T13:07:01Z</time>
      </trkpt>
      <trkpt lat="44.68869" lon="-0.24784">
        <ele>46.76</ele>
        <time>2017-11-28T13:07:18Z</time>
      </trkpt>
      <trkpt lat="44.68868" lon="-0.24798">
        <ele>47.72</ele>
        <time>2017-11-28T13:07:32Z</time>
      </trkpt>
      <trkpt lat="44.68867" lon="-0.24816">
        <ele>48.2</ele>
        <time>2017-11-28T13:07:46Z</time>
      </trkpt>
      <trkpt lat="44.68874" lon="-0.24835">
        <ele>48.2</ele>
        <time>2017-11-28T13:08:01Z</time>
      </trkpt>
      <trkpt lat="44.68883" lon="-0.2485">
        <ele>47.72</ele>
        <time>2017-11-28T13:08:17Z</time>
      </trkpt>
      <trkpt lat="44.68885" lon="-0.24866">
        <ele>47.72</ele>
        <time>2017-11-28T13:08:30Z</time>
      </trkpt>
      <trkpt lat="44.68886" lon="-0.24881">
        <ele>47.72</ele>
        <time>2017-11-28T13:08:43Z</time>
      </trkpt>
      <trkpt lat="44.68892" lon="-0.24897">
        <ele>47.72</ele>
        <time>2017-11-28T13:08:58Z</time>
      </trkpt>
      <trkpt lat="44.68896" lon="-0.24915">
        <ele>48.2</ele>
        <time>2017-11-28T13:09:13Z</time>
      </trkpt>
      <trkpt lat="44.68898" lon="-0.24924">
        <ele>48.68</ele>
        <time>2017-11-28T13:09:25Z</time>
      </trkpt>
      <trkpt lat="44.68898" lon="-0.24935">
        <ele>49.65</ele>
        <time>2017-11-28T13:09:44Z</time>
      </trkpt>
      <trkpt lat="44.68887" lon="-0.24947">
        <ele>49.65</ele>
        <time>2017-11-28T13:10:07Z</time>
      </trkpt>
      <trkpt lat="44.68877" lon="-0.24959">
        <ele>49.65</ele>
        <time>2017-11-28T13:10:23Z</time>
      </trkpt>
      <trkpt lat="44.68867" lon="-0.2497">
        <ele>49.65</ele>
        <time>2017-11-28T13:10:38Z</time>
      </trkpt>
      <trkpt lat="44.68858" lon="-0.24977">
        <ele>49.16</ele>
        <time>2017-11-28T13:10:53Z</time>
      </trkpt>
      <trkpt lat="44.68851" lon="-0.24984">
        <ele>49.16</ele>
        <time>2017-11-28T13:11:05Z</time>
      </trkpt>
      <trkpt lat="44.68845" lon="-0.2499">
        <ele>49.16</ele>
        <time>2017-11-28T13:11:19Z</time>
      </trkpt>
      <trkpt lat="44.68835" lon="-0.24993">
        <ele>49.65</ele>
        <time>2017-11-28T13:11:34Z</time>
      </trkpt>
      <trkpt lat="44.68824" lon="-0.25003">
        <ele>50.13</ele>
        <time>2017-11-28T13:11:49Z</time>
      </trkpt>
      <trkpt lat="44.68819" lon="-0.25007">
        <ele>50.61</ele>
        <time>2017-11-28T13:11:58Z</time>
      </trkpt>
      <trkpt lat="44.68807" lon="-0.25014">
        <ele>50.61</ele>
        <time>2017-11-28T13:12:12Z</time>
      </trkpt>
      <trkpt lat="44.68795" lon="-0.2502">
        <ele>51.09</ele>
        <time>2017-11-28T13:12:27Z</time>
      </trkpt>
      <trkpt lat="44.68782" lon="-0.25025">
        <ele>52.05</ele>
        <time>2017-11-28T13:12:41Z</time>
      </trkpt>
      <trkpt lat="44.68766" lon="-0.25031">
        <ele>53.01</ele>
        <time>2017-11-28T13:12:57Z</time>
      </trkpt>
      <trkpt lat="44.68754" lon="-0.25038">
        <ele>55.89</ele>
        <time>2017-11-28T13:13:12Z</time>
      </trkpt>
      <trkpt lat="44.68751" lon="-0.25044">
        <ele>55.41</ele>
        <time>2017-11-28T13:13:26Z</time>
      </trkpt>
      <trkpt lat="44.68752" lon="-0.25044">
        <ele>55.89</ele>
        <time>2017-11-28T13:13:51Z</time>
      </trkpt>
      <trkpt lat="44.68751" lon="-0.25046">
        <ele>55.89</ele>
        <time>2017-11-28T13:14:12Z</time>
      </trkpt>
      <trkpt lat="44.68753" lon="-0.25045">
        <ele>55.89</ele>
        <time>2017-11-28T13:14:30Z</time>
      </trkpt>
      <trkpt lat="44.68752" lon="-0.25046">
        <ele>55.89</ele>
        <time>2017-11-28T13:14:54Z</time>
      </trkpt>
      <trkpt lat="44.68753" lon="-0.25049">
        <ele>55.89</ele>
        <time>2017-11-28T13:15:21Z</time>
      </trkpt>
      <trkpt lat="44.68753" lon="-0.25053">
        <ele>55.89</ele>
        <time>2017-11-28T13:15:43Z</time>
      </trkpt>
      <trkpt lat="44.68752" lon="-0.25054">
        <ele>55.89</ele>
        <time>2017-11-28T13:16:10Z</time>
      </trkpt>
      <trkpt lat="44.68752" lon="-0.25052">
        <ele>55.89</ele>
        <time>2017-11-28T13:16:39Z</time>
      </trkpt>
      <trkpt lat="44.68752" lon="-0.25052">
        <ele>55.89</ele>
        <time>2017-11-28T13:16:40Z</time>
      </trkpt>
      <trkpt lat="44.68756" lon="-0.25063">
        <ele>55.89</ele>
        <time>2017-11-28T13:16:49Z</time>
      </trkpt>
      <trkpt lat="44.68764" lon="-0.25088">
        <ele>54.45</ele>
        <time>2017-11-28T13:17:06Z</time>
      </trkpt>
      <trkpt lat="44.68767" lon="-0.25099">
        <ele>53.97</ele>
        <time>2017-11-28T13:17:18Z</time>
      </trkpt>
      <trkpt lat="44.68771" lon="-0.25111">
        <ele>53.97</ele>
        <time>2017-11-28T13:17:28Z</time>
      </trkpt>
      <trkpt lat="44.68772" lon="-0.25115">
        <ele>53.97</ele>
        <time>2017-11-28T13:17:34Z</time>
      </trkpt>
      <trkpt lat="44.68777" lon="-0.25136">
        <ele>53.49</ele>
        <time>2017-11-28T13:17:48Z</time>
      </trkpt>
      <trkpt lat="44.68782" lon="-0.25152">
        <ele>52.53</ele>
        <time>2017-11-28T13:18:02Z</time>
      </trkpt>
      <trkpt lat="44.68786" lon="-0.25167">
        <ele>52.53</ele>
        <time>2017-11-28T13:18:15Z</time>
      </trkpt>
      <trkpt lat="44.68793" lon="-0.25192">
        <ele>52.05</ele>
        <time>2017-11-28T13:18:33Z</time>
      </trkpt>
      <trkpt lat="44.68798" lon="-0.2521">
        <ele>51.09</ele>
        <time>2017-11-28T13:18:46Z</time>
      </trkpt>
      <trkpt lat="44.68799" lon="-0.25212">
        <ele>51.09</ele>
        <time>2017-11-28T13:18:48Z</time>
      </trkpt>
      <trkpt lat="44.68809" lon="-0.25244">
        <ele>50.13</ele>
        <time>2017-11-28T13:19:07Z</time>
      </trkpt>
      <trkpt lat="44.68817" lon="-0.25269">
        <ele>49.16</ele>
        <time>2017-11-28T13:19:22Z</time>
      </trkpt>
      <trkpt lat="44.68821" lon="-0.25283">
        <ele>49.16</ele>
        <time>2017-11-28T13:19:31Z</time>
      </trkpt>
      <trkpt lat="44.68824" lon="-0.25293">
        <ele>49.16</ele>
        <time>2017-11-28T13:19:38Z</time>
      </trkpt>
      <trkpt lat="44.68831" lon="-0.2532">
        <ele>49.16</ele>
        <time>2017-11-28T13:19:55Z</time>
      </trkpt>
      <trkpt lat="44.68839" lon="-0.25346">
        <ele>49.16</ele>
        <time>2017-11-28T13:20:12Z</time>
      </trkpt>
      <trkpt lat="44.68847" lon="-0.25371">
        <ele>48.68</ele>
        <time>2017-11-28T13:20:29Z</time>
      </trkpt>
      <trkpt lat="44.68856" lon="-0.25398">
        <ele>48.68</ele>
        <time>2017-11-28T13:20:47Z</time>
      </trkpt>
      <trkpt lat="44.68863" lon="-0.25421">
        <ele>48.68</ele>
        <time>2017-11-28T13:21:01Z</time>
      </trkpt>
      <trkpt lat="44.68874" lon="-0.2545">
        <ele>48.68</ele>
        <time>2017-11-28T13:21:20Z</time>
      </trkpt>
      <trkpt lat="44.68878" lon="-0.25462">
        <ele>48.68</ele>
        <time>2017-11-28T13:21:28Z</time>
      </trkpt>
      <trkpt lat="44.68887" lon="-0.25485">
        <ele>48.2</ele>
        <time>2017-11-28T13:21:43Z</time>
      </trkpt>
      <trkpt lat="44.68896" lon="-0.25504">
        <ele>48.2</ele>
        <time>2017-11-28T13:21:55Z</time>
      </trkpt>
      <trkpt lat="44.68907" lon="-0.2553">
        <ele>46.76</ele>
        <time>2017-11-28T13:22:13Z</time>
      </trkpt>
      <trkpt lat="44.68915" lon="-0.25551">
        <ele>45.8</ele>
        <time>2017-11-28T13:22:27Z</time>
      </trkpt>
      <trkpt lat="44.68928" lon="-0.25579">
        <ele>45.32</ele>
        <time>2017-11-28T13:22:46Z</time>
      </trkpt>
      <trkpt lat="44.68939" lon="-0.25602">
        <ele>44.84</ele>
        <time>2017-11-28T13:23:02Z</time>
      </trkpt>
      <trkpt lat="44.68951" lon="-0.25623">
        <ele>44.84</ele>
        <time>2017-11-28T13:23:19Z</time>
      </trkpt>
      <trkpt lat="44.68961" lon="-0.25645">
        <ele>44.84</ele>
        <time>2017-11-28T13:23:34Z</time>
      </trkpt>
      <trkpt lat="44.68964" lon="-0.25653">
        <ele>44.36</ele>
        <time>2017-11-28T13:23:39Z</time>
      </trkpt>
      <trkpt lat="44.68978" lon="-0.25676">
        <ele>44.36</ele>
        <time>2017-11-28T13:23:57Z</time>
      </trkpt>
      <trkpt lat="44.68988" lon="-0.257">
        <ele>43.4</ele>
        <time>2017-11-28T13:24:14Z</time>
      </trkpt>
      <trkpt lat="44.68999" lon="-0.2573">
        <ele>42.92</ele>
        <time>2017-11-28T13:24:33Z</time>
      </trkpt>
      <trkpt lat="44.69007" lon="-0.25756">
        <ele>42.44</ele>
        <time>2017-11-28T13:24:49Z</time>
      </trkpt>
      <trkpt lat="44.69016" lon="-0.25776">
        <ele>41.47</ele>
        <time>2017-11-28T13:25:05Z</time>
      </trkpt>
      <trkpt lat="44.69019" lon="-0.25782">
        <ele>41.95</ele>
        <time>2017-11-28T13:25:10Z</time>
      </trkpt>
      <trkpt lat="44.69026" lon="-0.25799">
        <ele>41.47</ele>
        <time>2017-11-28T13:25:23Z</time>
      </trkpt>
      <trkpt lat="44.69032" lon="-0.25814">
        <ele>40.51</ele>
        <time>2017-11-28T13:25:37Z</time>
      </trkpt>
      <trkpt lat="44.69034" lon="-0.25819">
        <ele>40.03</ele>
        <time>2017-11-28T13:25:50Z</time>
      </trkpt>
      <trkpt lat="44.69032" lon="-0.2582">
        <ele>40.03</ele>
        <time>2017-11-28T13:26:08Z</time>
      </trkpt>
      <trkpt lat="44.69033" lon="-0.25817">
        <ele>40.03</ele>
        <time>2017-11-28T13:26:26Z</time>
      </trkpt>
      <trkpt lat="44.69034" lon="-0.25808">
        <ele>40.03</ele>
        <time>2017-11-28T13:26:35Z</time>
      </trkpt>
      <trkpt lat="44.69046" lon="-0.25796">
        <ele>40.03</ele>
        <time>2017-11-28T13:26:49Z</time>
      </trkpt>
      <trkpt lat="44.69055" lon="-0.25785">
        <ele>40.03</ele>
        <time>2017-11-28T13:27:00Z</time>
      </trkpt>
      <trkpt lat="44.69056" lon="-0.25785">
        <ele>40.03</ele>
        <time>2017-11-28T13:27:01Z</time>
      </trkpt>
      <trkpt lat="44.69068" lon="-0.25772">
        <ele>40.03</ele>
        <time>2017-11-28T13:27:15Z</time>
      </trkpt>
      <trkpt lat="44.6908" lon="-0.2576">
        <ele>39.55</ele>
        <time>2017-11-28T13:27:29Z</time>
      </trkpt>
      <trkpt lat="44.6909" lon="-0.2575">
        <ele>39.55</ele>
        <time>2017-11-28T13:27:41Z</time>
      </trkpt>
      <trkpt lat="44.69097" lon="-0.25743">
        <ele>39.55</ele>
        <time>2017-11-28T13:27:50Z</time>
      </trkpt>
      <trkpt lat="44.69108" lon="-0.25734">
        <ele>39.55</ele>
        <time>2017-11-28T13:28:02Z</time>
      </trkpt>
      <trkpt lat="44.69122" lon="-0.25727">
        <ele>39.55</ele>
        <time>2017-11-28T13:28:16Z</time>
      </trkpt>
      <trkpt lat="44.69126" lon="-0.25727">
        <ele>39.55</ele>
        <time>2017-11-28T13:28:24Z</time>
      </trkpt>
      <trkpt lat="44.6913" lon="-0.25725">
        <ele>39.55</ele>
        <time>2017-11-28T13:28:29Z</time>
      </trkpt>
      <trkpt lat="44.69134" lon="-0.25728">
        <ele>39.55</ele>
        <time>2017-11-28T13:28:34Z</time>
      </trkpt>
      <trkpt lat="44.69143" lon="-0.2574">
        <ele>39.55</ele>
        <time>2017-11-28T13:28:48Z</time>
      </trkpt>
      <trkpt lat="44.69148" lon="-0.25739">
        <ele>39.55</ele>
        <time>2017-11-28T13:28:57Z</time>
      </trkpt>
      <trkpt lat="44.69148" lon="-0.25739">
        <ele>39.55</ele>
        <time>2017-11-28T13:29:03Z</time>
      </trkpt>
      <trkpt lat="44.69153" lon="-0.25739">
        <ele>39.55</ele>
        <time>2017-11-28T13:29:07Z</time>
      </trkpt>
      <trkpt lat="44.69178" lon="-0.25737">
        <ele>39.07</ele>
        <time>2017-11-28T13:29:28Z</time>
      </trkpt>
      <trkpt lat="44.69203" lon="-0.25737">
        <ele>39.07</ele>
        <time>2017-11-28T13:29:49Z</time>
      </trkpt>
      <trkpt lat="44.69222" lon="-0.25741">
        <ele>39.07</ele>
        <time>2017-11-28T13:30:08Z</time>
      </trkpt>
      <trkpt lat="44.69248" lon="-0.25747">
        <ele>39.07</ele>
        <time>2017-11-28T13:30:25Z</time>
      </trkpt>
      <trkpt lat="44.69267" lon="-0.25754">
        <ele>38.59</ele>
        <time>2017-11-28T13:30:42Z</time>
      </trkpt>
      <trkpt lat="44.69293" lon="-0.25762">
        <ele>38.59</ele>
        <time>2017-11-28T13:31:02Z</time>
      </trkpt>
      <trkpt lat="44.69314" lon="-0.25767">
        <ele>38.11</ele>
        <time>2017-11-28T13:31:18Z</time>
      </trkpt>
      <trkpt lat="44.69321" lon="-0.2577">
        <ele>38.11</ele>
        <time>2017-11-28T13:31:27Z</time>
      </trkpt>
      <trkpt lat="44.69343" lon="-0.25779">
        <ele>38.11</ele>
        <time>2017-11-28T13:31:45Z</time>
      </trkpt>
      <trkpt lat="44.69351" lon="-0.25783">
        <ele>38.11</ele>
        <time>2017-11-28T13:31:55Z</time>
      </trkpt>
      <trkpt lat="44.69375" lon="-0.2579">
        <ele>38.11</ele>
        <time>2017-11-28T13:32:14Z</time>
      </trkpt>
      <trkpt lat="44.69403" lon="-0.258">
        <ele>38.11</ele>
        <time>2017-11-28T13:32:39Z</time>
      </trkpt>
      <trkpt lat="44.69427" lon="-0.25806">
        <ele>38.11</ele>
        <time>2017-11-28T13:33:00Z</time>
      </trkpt>
      <trkpt lat="44.69459" lon="-0.25811">
        <ele>38.11</ele>
        <time>2017-11-28T13:33:23Z</time>
      </trkpt>
      <trkpt lat="44.69482" lon="-0.25808">
        <ele>39.55</ele>
        <time>2017-11-28T13:33:42Z</time>
      </trkpt>
      <trkpt lat="44.69492" lon="-0.25807">
        <ele>39.55</ele>
        <time>2017-11-28T13:33:55Z</time>
      </trkpt>
      <trkpt lat="44.69504" lon="-0.258">
        <ele>39.55</ele>
        <time>2017-11-28T13:34:07Z</time>
      </trkpt>
      <trkpt lat="44.69524" lon="-0.25791">
        <ele>40.51</ele>
        <time>2017-11-28T13:34:24Z</time>
      </trkpt>
      <trkpt lat="44.69542" lon="-0.25784">
        <ele>39.07</ele>
        <time>2017-11-28T13:34:42Z</time>
      </trkpt>
      <trkpt lat="44.69565" lon="-0.25775">
        <ele>39.07</ele>
        <time>2017-11-28T13:35:02Z</time>
      </trkpt>
      <trkpt lat="44.69578" lon="-0.2577">
        <ele>39.07</ele>
        <time>2017-11-28T13:35:15Z</time>
      </trkpt>
      <trkpt lat="44.69599" lon="-0.2576">
        <ele>38.59</ele>
        <time>2017-11-28T13:35:35Z</time>
      </trkpt>
      <trkpt lat="44.69626" lon="-0.2575">
        <ele>38.11</ele>
        <time>2017-11-28T13:35:59Z</time>
      </trkpt>
      <trkpt lat="44.69644" lon="-0.25739">
        <ele>38.11</ele>
        <time>2017-11-28T13:36:14Z</time>
      </trkpt>
      <trkpt lat="44.69646" lon="-0.25732">
        <ele>39.55</ele>
        <time>2017-11-28T13:36:18Z</time>
      </trkpt>
      <trkpt lat="44.69648" lon="-0.25722">
        <ele>39.55</ele>
        <time>2017-11-28T13:36:25Z</time>
      </trkpt>
      <trkpt lat="44.69647" lon="-0.25689">
        <ele>40.03</ele>
        <time>2017-11-28T13:36:45Z</time>
      </trkpt>
      <trkpt lat="44.69647" lon="-0.25654">
        <ele>41.95</ele>
        <time>2017-11-28T13:37:06Z</time>
      </trkpt>
      <trkpt lat="44.69651" lon="-0.25621">
        <ele>41.95</ele>
        <time>2017-11-28T13:37:26Z</time>
      </trkpt>
      <trkpt lat="44.69669" lon="-0.25596">
        <ele>42.44</ele>
        <time>2017-11-28T13:37:47Z</time>
      </trkpt>
      <trkpt lat="44.69693" lon="-0.25568">
        <ele>42.92</ele>
        <time>2017-11-28T13:38:14Z</time>
      </trkpt>
      <trkpt lat="44.69702" lon="-0.25554">
        <ele>43.4</ele>
        <time>2017-11-28T13:38:32Z</time>
      </trkpt>
      <trkpt lat="44.69701" lon="-0.25557">
        <ele>43.4</ele>
        <time>2017-11-28T13:38:51Z</time>
      </trkpt>
      <trkpt lat="44.69717" lon="-0.25536">
        <ele>43.88</ele>
        <time>2017-11-28T13:39:09Z</time>
      </trkpt>
      <trkpt lat="44.69729" lon="-0.25525">
        <ele>43.88</ele>
        <time>2017-11-28T13:39:22Z</time>
      </trkpt>
      <trkpt lat="44.69741" lon="-0.25522">
        <ele>43.88</ele>
        <time>2017-11-28T13:39:34Z</time>
      </trkpt>
      <trkpt lat="44.69742" lon="-0.25522">
        <ele>43.88</ele>
        <time>2017-11-28T13:39:35Z</time>
      </trkpt>
      <trkpt lat="44.6976" lon="-0.25522">
        <ele>44.36</ele>
        <time>2017-11-28T13:39:52Z</time>
      </trkpt>
      <trkpt lat="44.69768" lon="-0.25523">
        <ele>44.36</ele>
        <time>2017-11-28T13:40:01Z</time>
      </trkpt>
      <trkpt lat="44.69787" lon="-0.25522">
        <ele>44.36</ele>
        <time>2017-11-28T13:40:20Z</time>
      </trkpt>
      <trkpt lat="44.69796" lon="-0.2552">
        <ele>45.8</ele>
        <time>2017-11-28T13:40:28Z</time>
      </trkpt>
      <trkpt lat="44.69811" lon="-0.25518">
        <ele>45.8</ele>
        <time>2017-11-28T13:40:41Z</time>
      </trkpt>
      <trkpt lat="44.69828" lon="-0.25516">
        <ele>46.28</ele>
        <time>2017-11-28T13:40:55Z</time>
      </trkpt>
      <trkpt lat="44.69844" lon="-0.25513">
        <ele>46.76</ele>
        <time>2017-11-28T13:41:10Z</time>
      </trkpt>
      <trkpt lat="44.69862" lon="-0.25511">
        <ele>47.24</ele>
        <time>2017-11-28T13:41:25Z</time>
      </trkpt>
      <trkpt lat="44.69877" lon="-0.25509">
        <ele>48.2</ele>
        <time>2017-11-28T13:41:40Z</time>
      </trkpt>
      <trkpt lat="44.69897" lon="-0.25506">
        <ele>48.2</ele>
        <time>2017-11-28T13:41:57Z</time>
      </trkpt>
      <trkpt lat="44.69917" lon="-0.25503">
        <ele>49.16</ele>
        <time>2017-11-28T13:42:14Z</time>
      </trkpt>
      <trkpt lat="44.69933" lon="-0.25502">
        <ele>49.65</ele>
        <time>2017-11-28T13:42:28Z</time>
      </trkpt>
      <trkpt lat="44.69939" lon="-0.25502">
        <ele>50.13</ele>
        <time>2017-11-28T13:42:33Z</time>
      </trkpt>
      <trkpt lat="44.69959" lon="-0.25499">
        <ele>51.57</ele>
        <time>2017-11-28T13:42:51Z</time>
      </trkpt>
      <trkpt lat="44.69967" lon="-0.25491">
        <ele>51.57</ele>
        <time>2017-11-28T13:43:00Z</time>
      </trkpt>
      <trkpt lat="44.69971" lon="-0.25465">
        <ele>52.05</ele>
        <time>2017-11-28T13:43:17Z</time>
      </trkpt>
      <trkpt lat="44.69974" lon="-0.25443">
        <ele>52.05</ele>
        <time>2017-11-28T13:43:32Z</time>
      </trkpt>
      <trkpt lat="44.69977" lon="-0.25415">
        <ele>52.05</ele>
        <time>2017-11-28T13:43:50Z</time>
      </trkpt>
      <trkpt lat="44.6998" lon="-0.25383">
        <ele>51.09</ele>
        <time>2017-11-28T13:44:09Z</time>
      </trkpt>
      <trkpt lat="44.69982" lon="-0.25356">
        <ele>51.09</ele>
        <time>2017-11-28T13:44:27Z</time>
      </trkpt>
      <trkpt lat="44.69982" lon="-0.25349">
        <ele>51.09</ele>
        <time>2017-11-28T13:44:32Z</time>
      </trkpt>
      <trkpt lat="44.69985" lon="-0.25326">
        <ele>50.61</ele>
        <time>2017-11-28T13:44:47Z</time>
      </trkpt>
      <trkpt lat="44.69987" lon="-0.25324">
        <ele>50.61</ele>
        <time>2017-11-28T13:44:50Z</time>
      </trkpt>
      <trkpt lat="44.7001" lon="-0.25313">
        <ele>50.61</ele>
        <time>2017-11-28T13:45:10Z</time>
      </trkpt>
      <trkpt lat="44.70032" lon="-0.25306">
        <ele>51.57</ele>
        <time>2017-11-28T13:45:30Z</time>
      </trkpt>
      <trkpt lat="44.70052" lon="-0.25298">
        <ele>52.53</ele>
        <time>2017-11-28T13:45:48Z</time>
      </trkpt>
      <trkpt lat="44.70071" lon="-0.25291">
        <ele>53.01</ele>
        <time>2017-11-28T13:46:05Z</time>
      </trkpt>
      <trkpt lat="44.70091" lon="-0.25283">
        <ele>53.97</ele>
        <time>2017-11-28T13:46:23Z</time>
      </trkpt>
      <trkpt lat="44.7011" lon="-0.25275">
        <ele>54.93</ele>
        <time>2017-11-28T13:46:41Z</time>
      </trkpt>
      <trkpt lat="44.70126" lon="-0.2527">
        <ele>55.41</ele>
        <time>2017-11-28T13:46:56Z</time>
      </trkpt>
      <trkpt lat="44.70143" lon="-0.25265">
        <ele>56.37</ele>
        <time>2017-11-28T13:47:11Z</time>
      </trkpt>
      <trkpt lat="44.70162" lon="-0.2526">
        <ele>56.86</ele>
        <time>2017-11-28T13:47:29Z</time>
      </trkpt>
      <trkpt lat="44.70177" lon="-0.2526">
        <ele>57.34</ele>
        <time>2017-11-28T13:47:44Z</time>
      </trkpt>
      <trkpt lat="44.70188" lon="-0.25265">
        <ele>58.3</ele>
        <time>2017-11-28T13:47:56Z</time>
      </trkpt>
      <trkpt lat="44.702" lon="-0.2527">
        <ele>59.26</ele>
        <time>2017-11-28T13:48:13Z</time>
      </trkpt>
      <trkpt lat="44.702" lon="-0.2527">
        <ele>59.26</ele>
        <time>2017-11-28T13:48:33Z</time>
      </trkpt>
      <trkpt lat="44.70198" lon="-0.25269">
        <ele>59.26</ele>
        <time>2017-11-28T13:49:00Z</time>
      </trkpt>
      <trkpt lat="44.702" lon="-0.25273">
        <ele>59.26</ele>
        <time>2017-11-28T13:49:28Z</time>
      </trkpt>
      <trkpt lat="44.70199" lon="-0.25271">
        <ele>59.26</ele>
        <time>2017-11-28T13:49:53Z</time>
      </trkpt>
      <trkpt lat="44.702" lon="-0.25274">
        <ele>59.26</ele>
        <time>2017-11-28T13:50:19Z</time>
      </trkpt>
      <trkpt lat="44.702" lon="-0.25274">
        <ele>59.26</ele>
        <time>2017-11-28T13:50:41Z</time>
      </trkpt>
      <trkpt lat="44.702" lon="-0.25273">
        <ele>59.26</ele>
        <time>2017-11-28T13:51:08Z</time>
      </trkpt>
      <trkpt lat="44.70199" lon="-0.25272">
        <ele>58.78</ele>
        <time>2017-11-28T13:51:46Z</time>
      </trkpt>
      <trkpt lat="44.70201" lon="-0.25272">
        <ele>58.78</ele>
        <time>2017-11-28T13:52:08Z</time>
      </trkpt>
      <trkpt lat="44.70195" lon="-0.25262">
        <ele>58.78</ele>
        <time>2017-11-28T13:52:23Z</time>
      </trkpt>
      <trkpt lat="44.70198" lon="-0.25252">
        <ele>58.78</ele>
        <time>2017-11-28T13:52:37Z</time>
      </trkpt>
      <trkpt lat="44.70205" lon="-0.25243">
        <ele>58.78</ele>
        <time>2017-11-28T13:52:46Z</time>
      </trkpt>
      <trkpt lat="44.70204" lon="-0.25233">
        <ele>57.82</ele>
        <time>2017-11-28T13:52:53Z</time>
      </trkpt>
      <trkpt lat="44.70201" lon="-0.2523">
        <ele>57.82</ele>
        <time>2017-11-28T13:53:05Z</time>
      </trkpt>
      <trkpt lat="44.70197" lon="-0.25215">
        <ele>57.34</ele>
        <time>2017-11-28T13:53:23Z</time>
      </trkpt>
      <trkpt lat="44.7019" lon="-0.25196">
        <ele>56.86</ele>
        <time>2017-11-28T13:53:38Z</time>
      </trkpt>
      <trkpt lat="44.70182" lon="-0.25179">
        <ele>56.37</ele>
        <time>2017-11-28T13:53:52Z</time>
      </trkpt>
      <trkpt lat="44.70171" lon="-0.25158">
        <ele>55.41</ele>
        <time>2017-11-28T13:54:08Z</time>
      </trkpt>
      <trkpt lat="44.70168" lon="-0.25152">
        <ele>55.41</ele>
        <time>2017-11-28T13:54:13Z</time>
      </trkpt>
      <trkpt lat="44.70168" lon="-0.2515">
        <ele>55.41</ele>
        <time>2017-11-28T13:54:15Z</time>
      </trkpt>
      <trkpt lat="44.70156" lon="-0.25127">
        <ele>54.93</ele>
        <time>2017-11-28T13:54:33Z</time>
      </trkpt>
      <trkpt lat="44.7015" lon="-0.2511">
        <ele>54.93</ele>
        <time>2017-11-28T13:54:47Z</time>
      </trkpt>
      <trkpt lat="44.70142" lon="-0.25092">
        <ele>54.93</ele>
        <time>2017-11-28T13:55:01Z</time>
      </trkpt>
      <trkpt lat="44.70138" lon="-0.25088">
        <ele>54.93</ele>
        <time>2017-11-28T13:55:06Z</time>
      </trkpt>
      <trkpt lat="44.70136" lon="-0.25082">
        <ele>54.93</ele>
        <time>2017-11-28T13:55:10Z</time>
      </trkpt>
      <trkpt lat="44.70133" lon="-0.25063">
        <ele>55.89</ele>
        <time>2017-11-28T13:55:23Z</time>
      </trkpt>
      <trkpt lat="44.70122" lon="-0.25042">
        <ele>55.89</ele>
        <time>2017-11-28T13:55:39Z</time>
      </trkpt>
      <trkpt lat="44.70113" lon="-0.2502">
        <ele>56.86</ele>
        <time>2017-11-28T13:55:55Z</time>
      </trkpt>
      <trkpt lat="44.70105" lon="-0.24993">
        <ele>56.37</ele>
        <time>2017-11-28T13:56:13Z</time>
      </trkpt>
      <trkpt lat="44.70104" lon="-0.24987">
        <ele>56.37</ele>
        <time>2017-11-28T13:56:16Z</time>
      </trkpt>
      <trkpt lat="44.701" lon="-0.2497">
        <ele>56.37</ele>
        <time>2017-11-28T13:56:27Z</time>
      </trkpt>
      <trkpt lat="44.701" lon="-0.24966">
        <ele>56.37</ele>
        <time>2017-11-28T13:56:30Z</time>
      </trkpt>
      <trkpt lat="44.70094" lon="-0.24945">
        <ele>56.37</ele>
        <time>2017-11-28T13:56:46Z</time>
      </trkpt>
      <trkpt lat="44.70092" lon="-0.24938">
        <ele>55.41</ele>
        <time>2017-11-28T13:56:53Z</time>
      </trkpt>
      <trkpt lat="44.70089" lon="-0.24912">
        <ele>54.93</ele>
        <time>2017-11-28T13:57:09Z</time>
      </trkpt>
      <trkpt lat="44.70086" lon="-0.24881">
        <ele>53.97</ele>
        <time>2017-11-28T13:57:27Z</time>
      </trkpt>
      <trkpt lat="44.70083" lon="-0.24868">
        <ele>53.01</ele>
        <time>2017-11-28T13:57:37Z</time>
      </trkpt>
      <trkpt lat="44.70077" lon="-0.24868">
        <ele>52.53</ele>
        <time>2017-11-28T13:57:44Z</time>
      </trkpt>
      <trkpt lat="44.7007" lon="-0.24868">
        <ele>52.53</ele>
        <time>2017-11-28T13:57:50Z</time>
      </trkpt>
      <trkpt lat="44.70063" lon="-0.24868">
        <ele>51.57</ele>
        <time>2017-11-28T13:57:57Z</time>
      </trkpt>
      <trkpt lat="44.70058" lon="-0.24867">
        <ele>51.09</ele>
        <time>2017-11-28T13:58:01Z</time>
      </trkpt>
      <trkpt lat="44.70033" lon="-0.24867">
        <ele>49.65</ele>
        <time>2017-11-28T13:58:21Z</time>
      </trkpt>
      <trkpt lat="44.7001" lon="-0.24864">
        <ele>48.2</ele>
        <time>2017-11-28T13:58:40Z</time>
      </trkpt>
      <trkpt lat="44.70007" lon="-0.24864">
        <ele>48.2</ele>
        <time>2017-11-28T13:58:43Z</time>
      </trkpt>
      <trkpt lat="44.70002" lon="-0.24862">
        <ele>48.2</ele>
        <time>2017-11-28T13:58:47Z</time>
      </trkpt>
      <trkpt lat="44.69977" lon="-0.24856">
        <ele>46.76</ele>
        <time>2017-11-28T13:59:07Z</time>
      </trkpt>
      <trkpt lat="44.69962" lon="-0.24845">
        <ele>45.32</ele>
        <time>2017-11-28T13:59:22Z</time>
      </trkpt>
      <trkpt lat="44.69947" lon="-0.24839">
        <ele>44.36</ele>
        <time>2017-11-28T13:59:37Z</time>
      </trkpt>
      <trkpt lat="44.69945" lon="-0.24815">
        <ele>43.88</ele>
        <time>2017-11-28T13:59:52Z</time>
      </trkpt>
      <trkpt lat="44.69944" lon="-0.24795">
        <ele>43.88</ele>
        <time>2017-11-28T14:00:05Z</time>
      </trkpt>
      <trkpt lat="44.69943" lon="-0.24771">
        <ele>43.88</ele>
        <time>2017-11-28T14:00:20Z</time>
      </trkpt>
      <trkpt lat="44.6994" lon="-0.24748">
        <ele>43.88</ele>
        <time>2017-11-28T14:00:34Z</time>
      </trkpt>
      <trkpt lat="44.69939" lon="-0.24731">
        <ele>43.88</ele>
        <time>2017-11-28T14:00:46Z</time>
      </trkpt>
      <trkpt lat="44.69932" lon="-0.24712">
        <ele>43.4</ele>
        <time>2017-11-28T14:01:01Z</time>
      </trkpt>
      <trkpt lat="44.69924" lon="-0.24705">
        <ele>42.44</ele>
        <time>2017-11-28T14:01:09Z</time>
      </trkpt>
      <trkpt lat="44.69923" lon="-0.24698">
        <ele>42.44</ele>
        <time>2017-11-28T14:01:15Z</time>
      </trkpt>
      <trkpt lat="44.69921" lon="-0.24696">
        <ele>42.44</ele>
        <time>2017-11-28T14:01:17Z</time>
      </trkpt>
      <trkpt lat="44.69918" lon="-0.24673">
        <ele>41.95</ele>
        <time>2017-11-28T14:01:33Z</time>
      </trkpt>
      <trkpt lat="44.69918" lon="-0.2465">
        <ele>41.95</ele>
        <time>2017-11-28T14:01:47Z</time>
      </trkpt>
      <trkpt lat="44.69918" lon="-0.2463">
        <ele>43.4</ele>
        <time>2017-11-28T14:02:00Z</time>
      </trkpt>
      <trkpt lat="44.69918" lon="-0.24606">
        <ele>43.4</ele>
        <time>2017-11-28T14:02:15Z</time>
      </trkpt>
      <trkpt lat="44.69921" lon="-0.24586">
        <ele>43.4</ele>
        <time>2017-11-28T14:02:28Z</time>
      </trkpt>
      <trkpt lat="44.6992" lon="-0.24563">
        <ele>43.88</ele>
        <time>2017-11-28T14:02:43Z</time>
      </trkpt>
      <trkpt lat="44.69921" lon="-0.24543">
        <ele>43.88</ele>
        <time>2017-11-28T14:02:57Z</time>
      </trkpt>
      <trkpt lat="44.69927" lon="-0.24532">
        <ele>44.36</ele>
        <time>2017-11-28T14:03:11Z</time>
      </trkpt>
      <trkpt lat="44.69942" lon="-0.2453">
        <ele>45.32</ele>
        <time>2017-11-28T14:03:24Z</time>
      </trkpt>
      <trkpt lat="44.6996" lon="-0.24528">
        <ele>46.28</ele>
        <time>2017-11-28T14:03:40Z</time>
      </trkpt>
      <trkpt lat="44.69974" lon="-0.24517">
        <ele>46.76</ele>
        <time>2017-11-28T14:03:56Z</time>
      </trkpt>
      <trkpt lat="44.69979" lon="-0.24493">
        <ele>46.76</ele>
        <time>2017-11-28T14:04:11Z</time>
      </trkpt>
      <trkpt lat="44.69981" lon="-0.24478">
        <ele>47.24</ele>
        <time>2017-11-28T14:04:22Z</time>
      </trkpt>
      <trkpt lat="44.69982" lon="-0.24445">
        <ele>46.28</ele>
        <time>2017-11-28T14:04:40Z</time>
      </trkpt>
      <trkpt lat="44.69983" lon="-0.24407">
        <ele>44.36</ele>
        <time>2017-11-28T14:05:01Z</time>
      </trkpt>
      <trkpt lat="44.69985" lon="-0.24381">
        <ele>43.4</ele>
        <time>2017-11-28T14:05:16Z</time>
      </trkpt>
      <trkpt lat="44.69996" lon="-0.24384">
        <ele>42.92</ele>
        <time>2017-11-28T14:05:27Z</time>
      </trkpt>
      <trkpt lat="44.70019" lon="-0.24393">
        <ele>42.92</ele>
        <time>2017-11-28T14:05:49Z</time>
      </trkpt>
      <trkpt lat="44.70019" lon="-0.24405">
        <ele>45.8</ele>
        <time>2017-11-28T14:06:04Z</time>
      </trkpt>
      <trkpt lat="44.70019" lon="-0.24406">
        <ele>46.28</ele>
        <time>2017-11-28T14:06:06Z</time>
      </trkpt>
      <trkpt lat="44.70011" lon="-0.24422">
        <ele>47.72</ele>
        <time>2017-11-28T14:06:21Z</time>
      </trkpt>
      <trkpt lat="44.7001" lon="-0.24424">
        <ele>47.72</ele>
        <time>2017-11-28T14:06:23Z</time>
      </trkpt>
      <trkpt lat="44.70006" lon="-0.24443">
        <ele>48.2</ele>
        <time>2017-11-28T14:06:38Z</time>
      </trkpt>
      <trkpt lat="44.70012" lon="-0.24451">
        <ele>48.2</ele>
        <time>2017-11-28T14:06:52Z</time>
      </trkpt>
      <trkpt lat="44.70013" lon="-0.24451">
        <ele>48.68</ele>
        <time>2017-11-28T14:07:07Z</time>
      </trkpt>
      <trkpt lat="44.70013" lon="-0.24453">
        <ele>48.68</ele>
        <time>2017-11-28T14:07:27Z</time>
      </trkpt>
      <trkpt lat="44.70012" lon="-0.24455">
        <ele>48.68</ele>
        <time>2017-11-28T14:07:54Z</time>
      </trkpt>
      <trkpt lat="44.70012" lon="-0.24454">
        <ele>48.68</ele>
        <time>2017-11-28T14:08:19Z</time>
      </trkpt>
      <trkpt lat="44.70015" lon="-0.2445">
        <ele>48.68</ele>
        <time>2017-11-28T14:08:38Z</time>
      </trkpt>
      <trkpt lat="44.70015" lon="-0.24452">
        <ele>48.68</ele>
        <time>2017-11-28T14:08:50Z</time>
      </trkpt>
      <trkpt lat="44.70015" lon="-0.24451">
        <ele>48.68</ele>
        <time>2017-11-28T14:09:07Z</time>
      </trkpt>
      <trkpt lat="44.70014" lon="-0.24451">
        <ele>48.2</ele>
        <time>2017-11-28T14:09:32Z</time>
      </trkpt>
      <trkpt lat="44.70012" lon="-0.24452">
        <ele>48.2</ele>
        <time>2017-11-28T14:09:56Z</time>
      </trkpt>
      <trkpt lat="44.70005" lon="-0.24447">
        <ele>48.2</ele>
        <time>2017-11-28T14:10:11Z</time>
      </trkpt>
      <trkpt lat="44.70005" lon="-0.24446">
        <ele>48.2</ele>
        <time>2017-11-28T14:10:27Z</time>
      </trkpt>
      <trkpt lat="44.70006" lon="-0.24442">
        <ele>48.2</ele>
        <time>2017-11-28T14:10:34Z</time>
      </trkpt>
      <trkpt lat="44.70006" lon="-0.24438">
        <ele>48.2</ele>
        <time>2017-11-28T14:10:37Z</time>
      </trkpt>
      <trkpt lat="44.70007" lon="-0.24427">
        <ele>48.2</ele>
        <time>2017-11-28T14:10:53Z</time>
      </trkpt>
      <trkpt lat="44.70013" lon="-0.2442">
        <ele>48.2</ele>
        <time>2017-11-28T14:11:09Z</time>
      </trkpt>
      <trkpt lat="44.70013" lon="-0.24422">
        <ele>47.72</ele>
        <time>2017-11-28T14:11:26Z</time>
      </trkpt>
      <trkpt lat="44.70008" lon="-0.24434">
        <ele>47.72</ele>
        <time>2017-11-28T14:11:41Z</time>
      </trkpt>
      <trkpt lat="44.70009" lon="-0.24449">
        <ele>47.72</ele>
        <time>2017-11-28T14:11:57Z</time>
      </trkpt>
      <trkpt lat="44.7001" lon="-0.24449">
        <ele>47.72</ele>
        <time>2017-11-28T14:12:15Z</time>
      </trkpt>
      <trkpt lat="44.70009" lon="-0.2445">
        <ele>48.68</ele>
        <time>2017-11-28T14:12:37Z</time>
      </trkpt>
      <trkpt lat="44.70009" lon="-0.24449">
        <ele>48.68</ele>
        <time>2017-11-28T14:12:51Z</time>
      </trkpt>
      <trkpt lat="44.70006" lon="-0.24448">
        <ele>48.68</ele>
        <time>2017-11-28T14:13:11Z</time>
      </trkpt>
      <trkpt lat="44.70002" lon="-0.24439">
        <ele>48.68</ele>
        <time>2017-11-28T14:13:27Z</time>
      </trkpt>
      <trkpt lat="44.70001" lon="-0.24432">
        <ele>48.68</ele>
        <time>2017-11-28T14:13:42Z</time>
      </trkpt>
      <trkpt lat="44.70008" lon="-0.24428">
        <ele>48.68</ele>
        <time>2017-11-28T14:13:55Z</time>
      </trkpt>
      <trkpt lat="44.70014" lon="-0.2442">
        <ele>48.68</ele>
        <time>2017-11-28T14:14:10Z</time>
      </trkpt>
      <trkpt lat="44.70015" lon="-0.24418">
        <ele>48.2</ele>
        <time>2017-11-28T14:14:28Z</time>
      </trkpt>
      <trkpt lat="44.70019" lon="-0.24411">
        <ele>47.24</ele>
        <time>2017-11-28T14:14:43Z</time>
      </trkpt>
      <trkpt lat="44.70018" lon="-0.24403">
        <ele>46.28</ele>
        <time>2017-11-28T14:14:59Z</time>
      </trkpt>
      <trkpt lat="44.70018" lon="-0.24399">
        <ele>44.84</ele>
        <time>2017-11-28T14:15:19Z</time>
      </trkpt>
      <trkpt lat="44.70018" lon="-0.24394">
        <ele>43.88</ele>
        <time>2017-11-28T14:15:31Z</time>
      </trkpt>
      <trkpt lat="44.70013" lon="-0.2439">
        <ele>43.88</ele>
        <time>2017-11-28T14:15:35Z</time>
      </trkpt>
      <trkpt lat="44.6999" lon="-0.24381">
        <ele>43.4</ele>
        <time>2017-11-28T14:15:56Z</time>
      </trkpt>
      <trkpt lat="44.69976" lon="-0.24373">
        <ele>42.92</ele>
        <time>2017-11-28T14:16:11Z</time>
      </trkpt>
      <trkpt lat="44.69968" lon="-0.24358">
        <ele>42.92</ele>
        <time>2017-11-28T14:16:22Z</time>
      </trkpt>
      <trkpt lat="44.69962" lon="-0.24342">
        <ele>42.92</ele>
        <time>2017-11-28T14:16:34Z</time>
      </trkpt>
      <trkpt lat="44.69962" lon="-0.24341">
        <ele>42.92</ele>
        <time>2017-11-28T14:16:35Z</time>
      </trkpt>
      <trkpt lat="44.6996" lon="-0.24326">
        <ele>42.92</ele>
        <time>2017-11-28T14:16:47Z</time>
      </trkpt>
      <trkpt lat="44.69952" lon="-0.24297">
        <ele>42.92</ele>
        <time>2017-11-28T14:17:03Z</time>
      </trkpt>
      <trkpt lat="44.69942" lon="-0.24259">
        <ele>42.44</ele>
        <time>2017-11-28T14:17:25Z</time>
      </trkpt>
      <trkpt lat="44.69937" lon="-0.24244">
        <ele>43.4</ele>
        <time>2017-11-28T14:17:34Z</time>
      </trkpt>
      <trkpt lat="44.69934" lon="-0.24234">
        <ele>42.92</ele>
        <time>2017-11-28T14:17:42Z</time>
      </trkpt>
      <trkpt lat="44.6993" lon="-0.24227">
        <ele>44.36</ele>
        <time>2017-11-28T14:17:50Z</time>
      </trkpt>
      <trkpt lat="44.69929" lon="-0.24224">
        <ele>43.4</ele>
        <time>2017-11-28T14:17:52Z</time>
      </trkpt>
      <trkpt lat="44.69916" lon="-0.24188">
        <ele>43.4</ele>
        <time>2017-11-28T14:18:15Z</time>
      </trkpt>
      <trkpt lat="44.69906" lon="-0.24166">
        <ele>43.4</ele>
        <time>2017-11-28T14:18:35Z</time>
      </trkpt>
      <trkpt lat="44.69898" lon="-0.24151">
        <ele>43.4</ele>
        <time>2017-11-28T14:18:54Z</time>
      </trkpt>
      <trkpt lat="44.69887" lon="-0.24141">
        <ele>43.4</ele>
        <time>2017-11-28T14:19:12Z</time>
      </trkpt>
      <trkpt lat="44.69873" lon="-0.24134">
        <ele>43.4</ele>
        <time>2017-11-28T14:19:31Z</time>
      </trkpt>
      <trkpt lat="44.69857" lon="-0.24127">
        <ele>43.4</ele>
        <time>2017-11-28T14:19:48Z</time>
      </trkpt>
      <trkpt lat="44.69855" lon="-0.24127">
        <ele>43.4</ele>
        <time>2017-11-28T14:19:49Z</time>
      </trkpt>
      <trkpt lat="44.69838" lon="-0.24125">
        <ele>43.4</ele>
        <time>2017-11-28T14:20:04Z</time>
      </trkpt>
      <trkpt lat="44.69816" lon="-0.24121">
        <ele>42.92</ele>
        <time>2017-11-28T14:20:20Z</time>
      </trkpt>
      <trkpt lat="44.69787" lon="-0.24113">
        <ele>42.92</ele>
        <time>2017-11-28T14:20:42Z</time>
      </trkpt>
      <trkpt lat="44.69768" lon="-0.2411">
        <ele>42.92</ele>
        <time>2017-11-28T14:20:57Z</time>
      </trkpt>
      <trkpt lat="44.69742" lon="-0.24111">
        <ele>45.8</ele>
        <time>2017-11-28T14:21:18Z</time>
      </trkpt>
      <trkpt lat="44.69734" lon="-0.24111">
        <ele>46.28</ele>
        <time>2017-11-28T14:21:26Z</time>
      </trkpt>
      <trkpt lat="44.69712" lon="-0.24113">
        <ele>47.72</ele>
        <time>2017-11-28T14:21:44Z</time>
      </trkpt>
      <trkpt lat="44.69689" lon="-0.24114">
        <ele>48.68</ele>
        <time>2017-11-28T14:22:03Z</time>
      </trkpt>
      <trkpt lat="44.69665" lon="-0.24114">
        <ele>48.68</ele>
        <time>2017-11-28T14:22:23Z</time>
      </trkpt>
      <trkpt lat="44.69641" lon="-0.24115">
        <ele>49.16</ele>
        <time>2017-11-28T14:22:43Z</time>
      </trkpt>
      <trkpt lat="44.69617" lon="-0.24114">
        <ele>49.65</ele>
        <time>2017-11-28T14:23:03Z</time>
      </trkpt>
      <trkpt lat="44.6959" lon="-0.24111">
        <ele>50.13</ele>
        <time>2017-11-28T14:23:25Z</time>
      </trkpt>
      <trkpt lat="44.69563" lon="-0.24108">
        <ele>50.61</ele>
        <time>2017-11-28T14:23:47Z</time>
      </trkpt>
      <trkpt lat="44.69538" lon="-0.24104">
        <ele>51.57</ele>
        <time>2017-11-28T14:24:08Z</time>
      </trkpt>
      <trkpt lat="44.69513" lon="-0.24098">
        <ele>52.53</ele>
        <time>2017-11-28T14:24:28Z</time>
      </trkpt>
      <trkpt lat="44.69481" lon="-0.24091">
        <ele>53.49</ele>
        <time>2017-11-28T14:24:54Z</time>
      </trkpt>
      <trkpt lat="44.69455" lon="-0.24085">
        <ele>54.93</ele>
        <time>2017-11-28T14:25:16Z</time>
      </trkpt>
      <trkpt lat="44.69431" lon="-0.24081">
        <ele>56.37</ele>
        <time>2017-11-28T14:25:37Z</time>
      </trkpt>
      <trkpt lat="44.69415" lon="-0.24077">
        <ele>57.82</ele>
        <time>2017-11-28T14:25:52Z</time>
      </trkpt>
      <trkpt lat="44.69393" lon="-0.24074">
        <ele>58.78</ele>
        <time>2017-11-28T14:26:09Z</time>
      </trkpt>
      <trkpt lat="44.69368" lon="-0.24073">
        <ele>59.74</ele>
        <time>2017-11-28T14:26:30Z</time>
      </trkpt>
      <trkpt lat="44.69342" lon="-0.24068">
        <ele>59.74</ele>
        <time>2017-11-28T14:26:52Z</time>
      </trkpt>
      <trkpt lat="44.69322" lon="-0.24044">
        <ele>58.3</ele>
        <time>2017-11-28T14:27:14Z</time>
      </trkpt>
      <trkpt lat="44.69308" lon="-0.24019">
        <ele>57.82</ele>
        <time>2017-11-28T14:27:35Z</time>
      </trkpt>
      <trkpt lat="44.69307" lon="-0.24019">
        <ele>57.82</ele>
        <time>2017-11-28T14:27:36Z</time>
      </trkpt>
      <trkpt lat="44.69302" lon="-0.24013">
        <ele>57.82</ele>
        <time>2017-11-28T14:27:48Z</time>
      </trkpt>
      <trkpt lat="44.693" lon="-0.2401">
        <ele>57.82</ele>
        <time>2017-11-28T14:27:51Z</time>
      </trkpt>
      <trkpt lat="44.69293" lon="-0.24009">
        <ele>57.82</ele>
        <time>2017-11-28T14:28:06Z</time>
      </trkpt>
      <trkpt lat="44.69295" lon="-0.24009">
        <ele>57.82</ele>
        <time>2017-11-28T14:28:41Z</time>
      </trkpt>
      <trkpt lat="44.69304" lon="-0.24014">
        <ele>57.82</ele>
        <time>2017-11-28T14:28:55Z</time>
      </trkpt>
      <trkpt lat="44.69312" lon="-0.24012">
        <ele>57.82</ele>
        <time>2017-11-28T14:29:08Z</time>
      </trkpt>
      <trkpt lat="44.69324" lon="-0.24002">
        <ele>57.82</ele>
        <time>2017-11-28T14:29:26Z</time>
      </trkpt>
      <trkpt lat="44.6933" lon="-0.23997">
        <ele>57.34</ele>
        <time>2017-11-28T14:29:34Z</time>
      </trkpt>
      <trkpt lat="44.69334" lon="-0.23993">
        <ele>57.34</ele>
        <time>2017-11-28T14:29:40Z</time>
      </trkpt>
      <trkpt lat="44.69349" lon="-0.2398">
        <ele>57.34</ele>
        <time>2017-11-28T14:29:58Z</time>
      </trkpt>
      <trkpt lat="44.69368" lon="-0.23967">
        <ele>59.74</ele>
        <time>2017-11-28T14:30:17Z</time>
      </trkpt>
      <trkpt lat="44.6939" lon="-0.23957">
        <ele>59.74</ele>
        <time>2017-11-28T14:30:38Z</time>
      </trkpt>
      <trkpt lat="44.69412" lon="-0.23948">
        <ele>58.78</ele>
        <time>2017-11-28T14:30:59Z</time>
      </trkpt>
      <trkpt lat="44.69438" lon="-0.23937">
        <ele>56.86</ele>
        <time>2017-11-28T14:31:20Z</time>
      </trkpt>
      <trkpt lat="44.69463" lon="-0.23918">
        <ele>56.86</ele>
        <time>2017-11-28T14:31:43Z</time>
      </trkpt>
      <trkpt lat="44.69484" lon="-0.23897">
        <ele>55.41</ele>
        <time>2017-11-28T14:32:05Z</time>
      </trkpt>
      <trkpt lat="44.69493" lon="-0.23891">
        <ele>55.41</ele>
        <time>2017-11-28T14:32:16Z</time>
      </trkpt>
      <trkpt lat="44.69505" lon="-0.23877">
        <ele>55.89</ele>
        <time>2017-11-28T14:32:32Z</time>
      </trkpt>
      <trkpt lat="44.69521" lon="-0.23862">
        <ele>54.93</ele>
        <time>2017-11-28T14:32:50Z</time>
      </trkpt>
      <trkpt lat="44.69539" lon="-0.2385">
        <ele>54.45</ele>
        <time>2017-11-28T14:33:08Z</time>
      </trkpt>
      <trkpt lat="44.69556" lon="-0.23828">
        <ele>54.45</ele>
        <time>2017-11-28T14:33:29Z</time>
      </trkpt>
      <trkpt lat="44.69569" lon="-0.23814">
        <ele>54.45</ele>
        <time>2017-11-28T14:33:43Z</time>
      </trkpt>
      <trkpt lat="44.69586" lon="-0.23798">
        <ele>54.45</ele>
        <time>2017-11-28T14:33:58Z</time>
      </trkpt>
      <trkpt lat="44.69604" lon="-0.23782">
        <ele>53.97</ele>
        <time>2017-11-28T14:34:20Z</time>
      </trkpt>
      <trkpt lat="44.6962" lon="-0.23768">
        <ele>53.49</ele>
        <time>2017-11-28T14:34:34Z</time>
      </trkpt>
      <trkpt lat="44.69635" lon="-0.23759">
        <ele>53.01</ele>
        <time>2017-11-28T14:34:49Z</time>
      </trkpt>
      <trkpt lat="44.69658" lon="-0.23741">
        <ele>52.53</ele>
        <time>2017-11-28T14:35:07Z</time>
      </trkpt>
      <trkpt lat="44.69676" lon="-0.23724">
        <ele>51.57</ele>
        <time>2017-11-28T14:35:20Z</time>
      </trkpt>
      <trkpt lat="44.6968" lon="-0.23721">
        <ele>51.57</ele>
        <time>2017-11-28T14:35:26Z</time>
      </trkpt>
      <trkpt lat="44.69688" lon="-0.23713">
        <ele>51.09</ele>
        <time>2017-11-28T14:35:40Z</time>
      </trkpt>
      <trkpt lat="44.69695" lon="-0.23712">
        <ele>51.09</ele>
        <time>2017-11-28T14:35:54Z</time>
      </trkpt>
      <trkpt lat="44.69702" lon="-0.23704">
        <ele>49.65</ele>
        <time>2017-11-28T14:36:09Z</time>
      </trkpt>
      <trkpt lat="44.69705" lon="-0.23701">
        <ele>49.16</ele>
        <time>2017-11-28T14:36:21Z</time>
      </trkpt>
      <trkpt lat="44.69713" lon="-0.23694">
        <ele>49.16</ele>
        <time>2017-11-28T14:36:35Z</time>
      </trkpt>
      <trkpt lat="44.69717" lon="-0.23689">
        <ele>48.68</ele>
        <time>2017-11-28T14:36:45Z</time>
      </trkpt>
      <trkpt lat="44.69718" lon="-0.23687">
        <ele>48.68</ele>
        <time>2017-11-28T14:36:46Z</time>
      </trkpt>
      <trkpt lat="44.69723" lon="-0.23682">
        <ele>48.2</ele>
        <time>2017-11-28T14:36:58Z</time>
      </trkpt>
      <trkpt lat="44.69729" lon="-0.23674">
        <ele>47.72</ele>
        <time>2017-11-28T14:37:13Z</time>
      </trkpt>
      <trkpt lat="44.69734" lon="-0.23666">
        <ele>47.72</ele>
        <time>2017-11-28T14:37:29Z</time>
      </trkpt>
      <trkpt lat="44.69732" lon="-0.23666">
        <ele>47.24</ele>
        <time>2017-11-28T14:37:58Z</time>
      </trkpt>
      <trkpt lat="44.69732" lon="-0.23663">
        <ele>47.24</ele>
        <time>2017-11-28T14:38:14Z</time>
      </trkpt>
      <trkpt lat="44.69736" lon="-0.23653">
        <ele>46.76</ele>
        <time>2017-11-28T14:38:34Z</time>
      </trkpt>
      <trkpt lat="44.69743" lon="-0.23636">
        <ele>45.8</ele>
        <time>2017-11-28T14:38:49Z</time>
      </trkpt>
      <trkpt lat="44.69752" lon="-0.23609">
        <ele>44.36</ele>
        <time>2017-11-28T14:39:08Z</time>
      </trkpt>
      <trkpt lat="44.69763" lon="-0.23575">
        <ele>43.88</ele>
        <time>2017-11-28T14:39:32Z</time>
      </trkpt>
      <trkpt lat="44.69774" lon="-0.23551">
        <ele>43.88</ele>
        <time>2017-11-28T14:39:48Z</time>
      </trkpt>
      <trkpt lat="44.6979" lon="-0.23522">
        <ele>43.88</ele>
        <time>2017-11-28T14:40:10Z</time>
      </trkpt>
      <trkpt lat="44.69791" lon="-0.2352">
        <ele>45.32</ele>
        <time>2017-11-28T14:40:12Z</time>
      </trkpt>
      <trkpt lat="44.69809" lon="-0.23493">
        <ele>45.8</ele>
        <time>2017-11-28T14:40:33Z</time>
      </trkpt>
      <trkpt lat="44.69831" lon="-0.23468">
        <ele>46.76</ele>
        <time>2017-11-28T14:40:56Z</time>
      </trkpt>
      <trkpt lat="44.69849" lon="-0.23446">
        <ele>47.72</ele>
        <time>2017-11-28T14:41:15Z</time>
      </trkpt>
      <trkpt lat="44.69867" lon="-0.23429">
        <ele>49.16</ele>
        <time>2017-11-28T14:41:34Z</time>
      </trkpt>
      <trkpt lat="44.69884" lon="-0.23412">
        <ele>50.13</ele>
        <time>2017-11-28T14:41:51Z</time>
      </trkpt>
      <trkpt lat="44.69899" lon="-0.23394">
        <ele>51.09</ele>
        <time>2017-11-28T14:42:09Z</time>
      </trkpt>
      <trkpt lat="44.699" lon="-0.23393">
        <ele>51.09</ele>
        <time>2017-11-28T14:42:10Z</time>
      </trkpt>
      <trkpt lat="44.69901" lon="-0.23391">
        <ele>51.09</ele>
        <time>2017-11-28T14:42:11Z</time>
      </trkpt>
      <trkpt lat="44.69902" lon="-0.2339">
        <ele>51.09</ele>
        <time>2017-11-28T14:42:12Z</time>
      </trkpt>
      <trkpt lat="44.69903" lon="-0.23389">
        <ele>51.09</ele>
        <time>2017-11-28T14:42:13Z</time>
      </trkpt>
      <trkpt lat="44.69904" lon="-0.23388">
        <ele>51.09</ele>
        <time>2017-11-28T14:42:14Z</time>
      </trkpt>
      <trkpt lat="44.69905" lon="-0.23387">
        <ele>51.57</ele>
        <time>2017-11-28T14:42:15Z</time>
      </trkpt>
      <trkpt lat="44.69922" lon="-0.2337">
        <ele>53.01</ele>
        <time>2017-11-28T14:42:32Z</time>
      </trkpt>
      <trkpt lat="44.69936" lon="-0.23357">
        <ele>53.97</ele>
        <time>2017-11-28T14:42:47Z</time>
      </trkpt>
      <trkpt lat="44.69936" lon="-0.23356">
        <ele>53.97</ele>
        <time>2017-11-28T14:42:48Z</time>
      </trkpt>
      <trkpt lat="44.69937" lon="-0.23355">
        <ele>53.97</ele>
        <time>2017-11-28T14:42:49Z</time>
      </trkpt>
      <trkpt lat="44.69946" lon="-0.23346">
        <ele>54.93</ele>
        <time>2017-11-28T14:42:58Z</time>
      </trkpt>
      <trkpt lat="44.69965" lon="-0.23314">
        <ele>56.86</ele>
        <time>2017-11-28T14:43:22Z</time>
      </trkpt>
      <trkpt lat="44.69982" lon="-0.23285">
        <ele>57.34</ele>
        <time>2017-11-28T14:43:45Z</time>
      </trkpt>
      <trkpt lat="44.69992" lon="-0.23272">
        <ele>55.89</ele>
        <time>2017-11-28T14:43:58Z</time>
      </trkpt>
      <trkpt lat="44.69993" lon="-0.23271">
        <ele>55.89</ele>
        <time>2017-11-28T14:43:59Z</time>
      </trkpt>
      <trkpt lat="44.69993" lon="-0.23269">
        <ele>55.41</ele>
        <time>2017-11-28T14:44:00Z</time>
      </trkpt>
      <trkpt lat="44.70006" lon="-0.23249">
        <ele>54.93</ele>
        <time>2017-11-28T14:44:18Z</time>
      </trkpt>
      <trkpt lat="44.70023" lon="-0.23221">
        <ele>53.97</ele>
        <time>2017-11-28T14:44:41Z</time>
      </trkpt>
      <trkpt lat="44.70039" lon="-0.23204">
        <ele>53.49</ele>
        <time>2017-11-28T14:44:56Z</time>
      </trkpt>
      <trkpt lat="44.70053" lon="-0.23186">
        <ele>53.01</ele>
        <time>2017-11-28T14:45:13Z</time>
      </trkpt>
      <trkpt lat="44.7007" lon="-0.23168">
        <ele>53.01</ele>
        <time>2017-11-28T14:45:31Z</time>
      </trkpt>
      <trkpt lat="44.70096" lon="-0.23144">
        <ele>53.01</ele>
        <time>2017-11-28T14:45:53Z</time>
      </trkpt>
      <trkpt lat="44.70109" lon="-0.23127">
        <ele>53.01</ele>
        <time>2017-11-28T14:46:10Z</time>
      </trkpt>
      <trkpt lat="44.70124" lon="-0.23109">
        <ele>53.01</ele>
        <time>2017-11-28T14:46:26Z</time>
      </trkpt>
      <trkpt lat="44.7014" lon="-0.23087">
        <ele>53.01</ele>
        <time>2017-11-28T14:46:43Z</time>
      </trkpt>
      <trkpt lat="44.70152" lon="-0.2307">
        <ele>54.93</ele>
        <time>2017-11-28T14:46:58Z</time>
      </trkpt>
      <trkpt lat="44.70169" lon="-0.2305">
        <ele>54.93</ele>
        <time>2017-11-28T14:47:16Z</time>
      </trkpt>
      <trkpt lat="44.70183" lon="-0.23036">
        <ele>55.41</ele>
        <time>2017-11-28T14:47:32Z</time>
      </trkpt>
      <trkpt lat="44.702" lon="-0.23027">
        <ele>55.41</ele>
        <time>2017-11-28T14:47:47Z</time>
      </trkpt>
      <trkpt lat="44.70202" lon="-0.23026">
        <ele>55.41</ele>
        <time>2017-11-28T14:47:49Z</time>
      </trkpt>
      <trkpt lat="44.70204" lon="-0.23025">
        <ele>55.41</ele>
        <time>2017-11-28T14:47:51Z</time>
      </trkpt>
      <trkpt lat="44.70221" lon="-0.23015">
        <ele>55.41</ele>
        <time>2017-11-28T14:48:06Z</time>
      </trkpt>
      <trkpt lat="44.70234" lon="-0.23007">
        <ele>55.41</ele>
        <time>2017-11-28T14:48:19Z</time>
      </trkpt>
      <trkpt lat="44.7025" lon="-0.22995">
        <ele>55.41</ele>
        <time>2017-11-28T14:48:35Z</time>
      </trkpt>
      <trkpt lat="44.70269" lon="-0.22982">
        <ele>55.41</ele>
        <time>2017-11-28T14:48:53Z</time>
      </trkpt>
      <trkpt lat="44.70285" lon="-0.2297">
        <ele>53.01</ele>
        <time>2017-11-28T14:49:10Z</time>
      </trkpt>
      <trkpt lat="44.70298" lon="-0.22955">
        <ele>52.05</ele>
        <time>2017-11-28T14:49:26Z</time>
      </trkpt>
      <trkpt lat="44.70309" lon="-0.22938">
        <ele>52.05</ele>
        <time>2017-11-28T14:49:41Z</time>
      </trkpt>
      <trkpt lat="44.70326" lon="-0.22919">
        <ele>50.61</ele>
        <time>2017-11-28T14:50:00Z</time>
      </trkpt>
      <trkpt lat="44.70345" lon="-0.22898">
        <ele>50.13</ele>
        <time>2017-11-28T14:50:17Z</time>
      </trkpt>
      <trkpt lat="44.70358" lon="-0.2288">
        <ele>49.65</ele>
        <time>2017-11-28T14:50:34Z</time>
      </trkpt>
      <trkpt lat="44.70375" lon="-0.22857">
        <ele>48.68</ele>
        <time>2017-11-28T14:50:54Z</time>
      </trkpt>
      <trkpt lat="44.70375" lon="-0.22855">
        <ele>48.68</ele>
        <time>2017-11-28T14:50:55Z</time>
      </trkpt>
      <trkpt lat="44.70374" lon="-0.2285">
        <ele>48.68</ele>
        <time>2017-11-28T14:50:59Z</time>
      </trkpt>
      <trkpt lat="44.70373" lon="-0.22849">
        <ele>48.68</ele>
        <time>2017-11-28T14:51:00Z</time>
      </trkpt>
      <trkpt lat="44.70373" lon="-0.22849">
        <ele>48.68</ele>
        <time>2017-11-28T14:51:13Z</time>
      </trkpt>
      <trkpt lat="44.70373" lon="-0.22849">
        <ele>50.13</ele>
        <time>2017-11-28T14:51:26Z</time>
      </trkpt>
      <trkpt lat="44.7037" lon="-0.22844">
        <ele>50.61</ele>
        <time>2017-11-28T14:51:45Z</time>
      </trkpt>
      <trkpt lat="44.70359" lon="-0.22832">
        <ele>50.61</ele>
        <time>2017-11-28T14:51:59Z</time>
      </trkpt>
      <trkpt lat="44.70345" lon="-0.22818">
        <ele>51.09</ele>
        <time>2017-11-28T14:52:17Z</time>
      </trkpt>
      <trkpt lat="44.70331" lon="-0.22804">
        <ele>51.57</ele>
        <time>2017-11-28T14:52:33Z</time>
      </trkpt>
      <trkpt lat="44.70311" lon="-0.22783">
        <ele>51.57</ele>
        <time>2017-11-28T14:52:55Z</time>
      </trkpt>
      <trkpt lat="44.70299" lon="-0.22764">
        <ele>52.05</ele>
        <time>2017-11-28T14:53:12Z</time>
      </trkpt>
      <trkpt lat="44.70292" lon="-0.22753">
        <ele>52.05</ele>
        <time>2017-11-28T14:53:21Z</time>
      </trkpt>
      <trkpt lat="44.70291" lon="-0.22751">
        <ele>52.05</ele>
        <time>2017-11-28T14:53:22Z</time>
      </trkpt>
      <trkpt lat="44.70286" lon="-0.22743">
        <ele>52.05</ele>
        <time>2017-11-28T14:53:29Z</time>
      </trkpt>
      <trkpt lat="44.70285" lon="-0.22741">
        <ele>52.05</ele>
        <time>2017-11-28T14:53:30Z</time>
      </trkpt>
      <trkpt lat="44.70274" lon="-0.22721">
        <ele>52.53</ele>
        <time>2017-11-28T14:53:47Z</time>
      </trkpt>
      <trkpt lat="44.70263" lon="-0.227">
        <ele>53.01</ele>
        <time>2017-11-28T14:54:04Z</time>
      </trkpt>
      <trkpt lat="44.70256" lon="-0.22697">
        <ele>53.01</ele>
        <time>2017-11-28T14:54:11Z</time>
      </trkpt>
      <trkpt lat="44.7024" lon="-0.22715">
        <ele>53.01</ele>
        <time>2017-11-28T14:54:29Z</time>
      </trkpt>
      <trkpt lat="44.70228" lon="-0.22728">
        <ele>53.49</ele>
        <time>2017-11-28T14:54:44Z</time>
      </trkpt>
      <trkpt lat="44.70224" lon="-0.2273">
        <ele>53.49</ele>
        <time>2017-11-28T14:54:49Z</time>
      </trkpt>
      <trkpt lat="44.70212" lon="-0.2273">
        <ele>53.97</ele>
        <time>2017-11-28T14:55:03Z</time>
      </trkpt>
      <trkpt lat="44.70203" lon="-0.22722">
        <ele>54.45</ele>
        <time>2017-11-28T14:55:13Z</time>
      </trkpt>
      <trkpt lat="44.70191" lon="-0.22709">
        <ele>54.45</ele>
        <time>2017-11-28T14:55:28Z</time>
      </trkpt>
      <trkpt lat="44.70186" lon="-0.227">
        <ele>54.45</ele>
        <time>2017-11-28T14:55:36Z</time>
      </trkpt>
      <trkpt lat="44.70182" lon="-0.22698">
        <ele>54.45</ele>
        <time>2017-11-28T14:55:40Z</time>
      </trkpt>
      <trkpt lat="44.70175" lon="-0.2269">
        <ele>54.93</ele>
        <time>2017-11-28T14:55:48Z</time>
      </trkpt>
      <trkpt lat="44.70163" lon="-0.22681">
        <ele>54.93</ele>
        <time>2017-11-28T14:56:01Z</time>
      </trkpt>
      <trkpt lat="44.7016" lon="-0.2268">
        <ele>54.93</ele>
        <time>2017-11-28T14:56:03Z</time>
      </trkpt>
      <trkpt lat="44.70157" lon="-0.22676">
        <ele>54.93</ele>
        <time>2017-11-28T14:56:08Z</time>
      </trkpt>
      <trkpt lat="44.70139" lon="-0.22664">
        <ele>54.93</ele>
        <time>2017-11-28T14:56:26Z</time>
      </trkpt>
      <trkpt lat="44.70122" lon="-0.22657">
        <ele>55.41</ele>
        <time>2017-11-28T14:56:42Z</time>
      </trkpt>
      <trkpt lat="44.70117" lon="-0.22655">
        <ele>55.41</ele>
        <time>2017-11-28T14:56:48Z</time>
      </trkpt>
      <trkpt lat="44.70103" lon="-0.22662">
        <ele>56.37</ele>
        <time>2017-11-28T14:57:02Z</time>
      </trkpt>
      <trkpt lat="44.70092" lon="-0.2266">
        <ele>56.37</ele>
        <time>2017-11-28T14:57:13Z</time>
      </trkpt>
      <trkpt lat="44.70082" lon="-0.22641">
        <ele>57.34</ele>
        <time>2017-11-28T14:57:28Z</time>
      </trkpt>
      <trkpt lat="44.70073" lon="-0.22624">
        <ele>58.3</ele>
        <time>2017-11-28T14:57:42Z</time>
      </trkpt>
      <trkpt lat="44.70069" lon="-0.22623">
        <ele>58.78</ele>
        <time>2017-11-28T14:57:54Z</time>
      </trkpt>
      <trkpt lat="44.7007" lon="-0.22625">
        <ele>58.78</ele>
        <time>2017-11-28T14:58:30Z</time>
      </trkpt>
      <trkpt lat="44.70068" lon="-0.22622">
        <ele>58.78</ele>
        <time>2017-11-28T14:58:58Z</time>
      </trkpt>
      <trkpt lat="44.70068" lon="-0.22622">
        <ele>57.34</ele>
        <time>2017-11-28T14:59:24Z</time>
      </trkpt>
      <trkpt lat="44.70068" lon="-0.22626">
        <ele>57.34</ele>
        <time>2017-11-28T14:59:49Z</time>
      </trkpt>
      <trkpt lat="44.70061" lon="-0.22632">
        <ele>57.34</ele>
        <time>2017-11-28T15:00:04Z</time>
      </trkpt>
      <trkpt lat="44.7006" lon="-0.22633">
        <ele>57.34</ele>
        <time>2017-11-28T15:00:10Z</time>
      </trkpt>
      <trkpt lat="44.70048" lon="-0.22647">
        <ele>59.74</ele>
        <time>2017-11-28T15:00:27Z</time>
      </trkpt>
      <trkpt lat="44.70037" lon="-0.22659">
        <ele>59.74</ele>
        <time>2017-11-28T15:00:40Z</time>
      </trkpt>
      <trkpt lat="44.70036" lon="-0.22662">
        <ele>59.74</ele>
        <time>2017-11-28T15:00:42Z</time>
      </trkpt>
      <trkpt lat="44.70026" lon="-0.22672">
        <ele>60.7</ele>
        <time>2017-11-28T15:00:54Z</time>
      </trkpt>
      <trkpt lat="44.70016" lon="-0.22687">
        <ele>62.14</ele>
        <time>2017-11-28T15:01:08Z</time>
      </trkpt>
      <trkpt lat="44.70019" lon="-0.22711">
        <ele>62.62</ele>
        <time>2017-11-28T15:01:24Z</time>
      </trkpt>
      <trkpt lat="44.70018" lon="-0.22717">
        <ele>62.62</ele>
        <time>2017-11-28T15:01:29Z</time>
      </trkpt>
      <trkpt lat="44.70009" lon="-0.2274">
        <ele>62.62</ele>
        <time>2017-11-28T15:01:46Z</time>
      </trkpt>
      <trkpt lat="44.70019" lon="-0.22765">
        <ele>63.1</ele>
        <time>2017-11-28T15:02:04Z</time>
      </trkpt>
      <trkpt lat="44.7003" lon="-0.22793">
        <ele>62.14</ele>
        <time>2017-11-28T15:02:24Z</time>
      </trkpt>
      <trkpt lat="44.70021" lon="-0.22811">
        <ele>61.18</ele>
        <time>2017-11-28T15:02:40Z</time>
      </trkpt>
      <trkpt lat="44.70018" lon="-0.22815">
        <ele>61.18</ele>
        <time>2017-11-28T15:02:43Z</time>
      </trkpt>
      <trkpt lat="44.70002" lon="-0.22829">
        <ele>61.18</ele>
        <time>2017-11-28T15:03:00Z</time>
      </trkpt>
      <trkpt lat="44.69985" lon="-0.22843">
        <ele>61.18</ele>
        <time>2017-11-28T15:03:17Z</time>
      </trkpt>
      <trkpt lat="44.69967" lon="-0.22854">
        <ele>61.18</ele>
        <time>2017-11-28T15:03:34Z</time>
      </trkpt>
      <trkpt lat="44.6995" lon="-0.22868">
        <ele>60.22</ele>
        <time>2017-11-28T15:03:51Z</time>
      </trkpt>
      <trkpt lat="44.69943" lon="-0.22876">
        <ele>60.22</ele>
        <time>2017-11-28T15:03:59Z</time>
      </trkpt>
      <trkpt lat="44.69935" lon="-0.22884">
        <ele>61.18</ele>
        <time>2017-11-28T15:04:08Z</time>
      </trkpt>
      <trkpt lat="44.69924" lon="-0.22897">
        <ele>61.18</ele>
        <time>2017-11-28T15:04:22Z</time>
      </trkpt>
      <trkpt lat="44.69923" lon="-0.22898">
        <ele>61.18</ele>
        <time>2017-11-28T15:04:24Z</time>
      </trkpt>
      <trkpt lat="44.69914" lon="-0.22914">
        <ele>61.66</ele>
        <time>2017-11-28T15:04:37Z</time>
      </trkpt>
      <trkpt lat="44.69899" lon="-0.22927">
        <ele>61.66</ele>
        <time>2017-11-28T15:04:54Z</time>
      </trkpt>
      <trkpt lat="44.69886" lon="-0.22943">
        <ele>61.66</ele>
        <time>2017-11-28T15:05:10Z</time>
      </trkpt>
      <trkpt lat="44.69877" lon="-0.22963">
        <ele>62.62</ele>
        <time>2017-11-28T15:05:27Z</time>
      </trkpt>
      <trkpt lat="44.69867" lon="-0.22989">
        <ele>61.18</ele>
        <time>2017-11-28T15:05:47Z</time>
      </trkpt>
      <trkpt lat="44.69859" lon="-0.23008">
        <ele>60.7</ele>
        <time>2017-11-28T15:06:01Z</time>
      </trkpt>
      <trkpt lat="44.69847" lon="-0.23035">
        <ele>59.26</ele>
        <time>2017-11-28T15:06:22Z</time>
      </trkpt>
      <trkpt lat="44.69839" lon="-0.23055">
        <ele>57.82</ele>
        <time>2017-11-28T15:06:36Z</time>
      </trkpt>
      <trkpt lat="44.6982" lon="-0.23076">
        <ele>56.86</ele>
        <time>2017-11-28T15:06:58Z</time>
      </trkpt>
      <trkpt lat="44.69803" lon="-0.23097">
        <ele>56.37</ele>
        <time>2017-11-28T15:07:17Z</time>
      </trkpt>
      <trkpt lat="44.69782" lon="-0.23122">
        <ele>55.89</ele>
        <time>2017-11-28T15:07:39Z</time>
      </trkpt>
      <trkpt lat="44.69762" lon="-0.23144">
        <ele>54.93</ele>
        <time>2017-11-28T15:08:01Z</time>
      </trkpt>
      <trkpt lat="44.69744" lon="-0.23162">
        <ele>54.45</ele>
        <time>2017-11-28T15:08:20Z</time>
      </trkpt>
      <trkpt lat="44.69729" lon="-0.23179">
        <ele>54.93</ele>
        <time>2017-11-28T15:08:37Z</time>
      </trkpt>
      <trkpt lat="44.69718" lon="-0.23185">
        <ele>54.45</ele>
        <time>2017-11-28T15:08:49Z</time>
      </trkpt>
      <trkpt lat="44.69714" lon="-0.23181">
        <ele>54.45</ele>
        <time>2017-11-28T15:08:53Z</time>
      </trkpt>
      <trkpt lat="44.69698" lon="-0.23152">
        <ele>54.45</ele>
        <time>2017-11-28T15:09:17Z</time>
      </trkpt>
      <trkpt lat="44.69683" lon="-0.23125">
        <ele>54.45</ele>
        <time>2017-11-28T15:09:39Z</time>
      </trkpt>
      <trkpt lat="44.69669" lon="-0.231">
        <ele>52.53</ele>
        <time>2017-11-28T15:09:59Z</time>
      </trkpt>
      <trkpt lat="44.69651" lon="-0.23074">
        <ele>51.09</ele>
        <time>2017-11-28T15:10:21Z</time>
      </trkpt>
      <trkpt lat="44.69635" lon="-0.23072">
        <ele>49.65</ele>
        <time>2017-11-28T15:10:37Z</time>
      </trkpt>
      <trkpt lat="44.69615" lon="-0.23082">
        <ele>48.68</ele>
        <time>2017-11-28T15:10:53Z</time>
      </trkpt>
      <trkpt lat="44.69612" lon="-0.23085">
        <ele>48.68</ele>
        <time>2017-11-28T15:10:57Z</time>
      </trkpt>
      <trkpt lat="44.69606" lon="-0.23088">
        <ele>48.2</ele>
        <time>2017-11-28T15:11:02Z</time>
      </trkpt>
      <trkpt lat="44.69582" lon="-0.23098">
        <ele>47.24</ele>
        <time>2017-11-28T15:11:21Z</time>
      </trkpt>
      <trkpt lat="44.69566" lon="-0.23108">
        <ele>45.8</ele>
        <time>2017-11-28T15:11:38Z</time>
      </trkpt>
      <trkpt lat="44.69544" lon="-0.23118">
        <ele>44.36</ele>
        <time>2017-11-28T15:11:58Z</time>
      </trkpt>
      <trkpt lat="44.69543" lon="-0.23118">
        <ele>44.36</ele>
        <time>2017-11-28T15:12:20Z</time>
      </trkpt>
      <trkpt lat="44.69534" lon="-0.23128">
        <ele>43.88</ele>
        <time>2017-11-28T15:12:37Z</time>
      </trkpt>
      <trkpt lat="44.69511" lon="-0.23135">
        <ele>43.88</ele>
        <time>2017-11-28T15:12:58Z</time>
      </trkpt>
      <trkpt lat="44.69493" lon="-0.23144">
        <ele>43.88</ele>
        <time>2017-11-28T15:13:15Z</time>
      </trkpt>
      <trkpt lat="44.69465" lon="-0.2316">
        <ele>45.32</ele>
        <time>2017-11-28T15:13:38Z</time>
      </trkpt>
      <trkpt lat="44.69437" lon="-0.23174">
        <ele>46.28</ele>
        <time>2017-11-28T15:13:56Z</time>
      </trkpt>
      <trkpt lat="44.69415" lon="-0.2319">
        <ele>47.72</ele>
        <time>2017-11-28T15:14:17Z</time>
      </trkpt>
      <trkpt lat="44.69393" lon="-0.23205">
        <ele>49.16</ele>
        <time>2017-11-28T15:14:38Z</time>
      </trkpt>
      <trkpt lat="44.69379" lon="-0.23215">
        <ele>50.13</ele>
        <time>2017-11-28T15:14:54Z</time>
      </trkpt>
      <trkpt lat="44.69363" lon="-0.2322">
        <ele>50.13</ele>
        <time>2017-11-28T15:15:13Z</time>
      </trkpt>
      <trkpt lat="44.69359" lon="-0.23214">
        <ele>50.13</ele>
        <time>2017-11-28T15:15:19Z</time>
      </trkpt>
      <trkpt lat="44.69355" lon="-0.23209">
        <ele>50.13</ele>
        <time>2017-11-28T15:15:24Z</time>
      </trkpt>
      <trkpt lat="44.69338" lon="-0.23177">
        <ele>50.61</ele>
        <time>2017-11-28T15:15:47Z</time>
      </trkpt>
      <trkpt lat="44.69323" lon="-0.23149">
        <ele>51.09</ele>
        <time>2017-11-28T15:16:08Z</time>
      </trkpt>
      <trkpt lat="44.69307" lon="-0.23113">
        <ele>51.09</ele>
        <time>2017-11-28T15:16:34Z</time>
      </trkpt>
      <trkpt lat="44.69292" lon="-0.23086">
        <ele>49.65</ele>
        <time>2017-11-28T15:16:54Z</time>
      </trkpt>
      <trkpt lat="44.69279" lon="-0.23063">
        <ele>49.65</ele>
        <time>2017-11-28T15:17:12Z</time>
      </trkpt>
      <trkpt lat="44.69263" lon="-0.23047">
        <ele>49.65</ele>
        <time>2017-11-28T15:17:28Z</time>
      </trkpt>
      <trkpt lat="44.6926" lon="-0.23047">
        <ele>49.65</ele>
        <time>2017-11-28T15:17:31Z</time>
      </trkpt>
      <trkpt lat="44.69249" lon="-0.23054">
        <ele>50.61</ele>
        <time>2017-11-28T15:17:42Z</time>
      </trkpt>
      <trkpt lat="44.69236" lon="-0.23062">
        <ele>51.09</ele>
        <time>2017-11-28T15:17:58Z</time>
      </trkpt>
      <trkpt lat="44.6923" lon="-0.23066">
        <ele>51.09</ele>
        <time>2017-11-28T15:18:12Z</time>
      </trkpt>
      <trkpt lat="44.69229" lon="-0.23067">
        <ele>50.61</ele>
        <time>2017-11-28T15:18:23Z</time>
      </trkpt>
    </trkseg>
  </trk>
</gpx>